<?xml version='1.0' encoding='UTF-8' standalone='yes' ?>
<gpx xmlns="http://www.topografix.com/GPX/1/1" xmlns:geotracker="http://ilyabogdanovich.com/gpx/extensions/geotracker" xmlns:xsi="http://www.w3.org/2001/XMLSchema-instance" xsi:schemaLocation="http://www.topografix.com/GPX/1/1 http://www.topografix.com/GPX/1/1/gpx.xsd" version="1.1" creator="Записано в Геотрекере для Android от Ильи Богдановича">
  <metadata>
    <name>29 авг. 2026 г. 23:05:51</name>
    <author>
      <name>Записано в Геотрекере для Android от Ильи Богдановича</name>
      <link href="https://play.google.com/store/apps/details?id=com.ilyabogdanovich.geotracker" />
    </author>
    <link href="https://play.google.com/store/apps/details?id=com.ilyabogdanovich.geotracker" />
    <time>2026-08-29T20:05:51Z</time>
  </metadata>
  <trk>
    <name>29 авг. 2026 г. 23:05:51</name>
    <src>Записано в Геотрекере для Android от Ильи Богдановича</src>
    <link href="https://play.google.com/store/apps/details?id=com.ilyabogdanovich.geotracker" />
    <extensions>
      <geotracker:meta>
        <geotracker:length>11532.51</geotracker:length>
        <geotracker:duration>16002626</geotracker:duration>
        <geotracker:creationtime>2026-08-29T20:05:51Z</geotracker:creationtime>
        <geotracker:activity>0</geotracker:activity>
      </geotracker:meta>
    </extensions>
    <trkseg>
      <trkpt lat="59.44621658" lon="30.24891913">
        <ele>79.54</ele>
        <time>2026-08-29T20:05:52Z</time>
      </trkpt>
      <trkpt lat="59.44623945" lon="30.24910458">
        <ele>90.66</ele>
        <time>2026-08-29T20:06:25Z</time>
      </trkpt>
      <trkpt lat="59.44633035" lon="30.24917499">
        <ele>91.32</ele>
        <time>2026-08-29T20:06:35Z</time>
      </trkpt>
      <trkpt lat="59.44642275" lon="30.24915991">
        <ele>91.39</ele>
        <time>2026-08-29T20:06:49Z</time>
      </trkpt>
      <trkpt lat="59.44650575" lon="30.24909114">
        <ele>91.71</ele>
        <time>2026-08-29T20:07:08Z</time>
      </trkpt>
      <trkpt lat="59.44659754" lon="30.24910458">
        <ele>90.69</ele>
        <time>2026-08-29T20:07:23Z</time>
      </trkpt>
      <trkpt lat="59.44669105" lon="30.24910049">
        <ele>91.7</ele>
        <time>2026-08-29T20:08:22Z</time>
      </trkpt>
      <trkpt lat="59.44678299" lon="30.24909021">
        <ele>92.15</ele>
        <time>2026-08-29T20:09:06Z</time>
      </trkpt>
      <trkpt lat="59.44687078" lon="30.24901527">
        <ele>89.96</ele>
        <time>2026-08-29T20:09:40Z</time>
      </trkpt>
      <trkpt lat="59.44689244" lon="30.24919228">
        <ele>91.24</ele>
        <time>2026-08-29T20:10:17Z</time>
      </trkpt>
      <trkpt lat="59.44698527" lon="30.24914874">
        <ele>91.21</ele>
        <time>2026-08-29T20:10:41Z</time>
      </trkpt>
      <trkpt lat="59.44707794" lon="30.24914606">
        <ele>91.15</ele>
        <time>2026-08-29T20:10:55Z</time>
      </trkpt>
      <trkpt lat="59.44711751" lon="30.24898648">
        <ele>91.14</ele>
        <time>2026-08-29T20:11:12Z</time>
      </trkpt>
      <trkpt lat="59.44718552" lon="30.24910765">
        <ele>91</ele>
        <time>2026-08-29T20:11:36Z</time>
      </trkpt>
      <trkpt lat="59.44728173" lon="30.24910611">
        <ele>92.2</ele>
        <time>2026-08-29T20:11:52Z</time>
      </trkpt>
      <trkpt lat="59.44737477" lon="30.24910102">
        <ele>90.53</ele>
        <time>2026-08-29T20:12:03Z</time>
      </trkpt>
      <trkpt lat="59.447464" lon="30.24906892">
        <ele>90.66</ele>
        <time>2026-08-29T20:12:19Z</time>
      </trkpt>
      <trkpt lat="59.44741234" lon="30.24910476">
        <ele>89.62</ele>
        <time>2026-08-29T20:14:20Z</time>
      </trkpt>
      <trkpt lat="59.44731408" lon="30.24911415">
        <ele>88.29</ele>
        <time>2026-08-29T20:14:31Z</time>
      </trkpt>
      <trkpt lat="59.44722498" lon="30.24921055">
        <ele>90.24</ele>
        <time>2026-08-29T20:14:44Z</time>
      </trkpt>
      <trkpt lat="59.44713844" lon="30.24912913">
        <ele>90.13</ele>
        <time>2026-08-29T20:14:54Z</time>
      </trkpt>
      <trkpt lat="59.44704657" lon="30.24918568">
        <ele>91.2</ele>
        <time>2026-08-29T20:15:06Z</time>
      </trkpt>
      <trkpt lat="59.44698764" lon="30.24932147">
        <ele>92.93</ele>
        <time>2026-08-29T20:15:21Z</time>
      </trkpt>
      <trkpt lat="59.44692085" lon="30.24919525">
        <ele>90.89</ele>
        <time>2026-08-29T20:15:39Z</time>
      </trkpt>
      <trkpt lat="59.44682915" lon="30.24925027">
        <ele>90.03</ele>
        <time>2026-08-29T20:15:51Z</time>
      </trkpt>
      <trkpt lat="59.44673445" lon="30.24923341">
        <ele>90.68</ele>
        <time>2026-08-29T20:16:02Z</time>
      </trkpt>
      <trkpt lat="59.44665284" lon="30.2493284">
        <ele>91.86</ele>
        <time>2026-08-29T20:16:11Z</time>
      </trkpt>
      <trkpt lat="59.44657419" lon="30.24941455">
        <ele>93.14</ele>
        <time>2026-08-29T20:16:26Z</time>
      </trkpt>
      <trkpt lat="59.44649195" lon="30.24933559">
        <ele>92.2</ele>
        <time>2026-08-29T20:16:42Z</time>
      </trkpt>
      <trkpt lat="59.44640051" lon="30.24933466">
        <ele>93.04</ele>
        <time>2026-08-29T20:16:56Z</time>
      </trkpt>
      <trkpt lat="59.4463364" lon="30.24918768">
        <ele>90.76</ele>
        <time>2026-08-29T20:17:09Z</time>
      </trkpt>
      <trkpt lat="59.44624498" lon="30.24911746">
        <ele>91.97</ele>
        <time>2026-08-29T20:17:20Z</time>
      </trkpt>
      <trkpt lat="59.44621239" lon="30.24894385">
        <ele>89.77</ele>
        <time>2026-08-29T20:17:29Z</time>
      </trkpt>
      <trkpt lat="59.44620095" lon="30.24875575">
        <ele>89</ele>
        <time>2026-08-29T20:17:37Z</time>
      </trkpt>
      <trkpt lat="59.44617993" lon="30.24856736">
        <ele>89.66</ele>
        <time>2026-08-29T20:17:45Z</time>
      </trkpt>
      <trkpt lat="59.4461827" lon="30.24837484">
        <ele>88.13</ele>
        <time>2026-08-29T20:17:54Z</time>
      </trkpt>
      <trkpt lat="59.44617937" lon="30.24819212">
        <ele>89.22</ele>
        <time>2026-08-29T20:18:02Z</time>
      </trkpt>
      <trkpt lat="59.44617233" lon="30.24801332">
        <ele>89.41</ele>
        <time>2026-08-29T20:18:38Z</time>
      </trkpt>
      <trkpt lat="59.44615803" lon="30.24783282">
        <ele>89.78</ele>
        <time>2026-08-29T20:18:46Z</time>
      </trkpt>
      <trkpt lat="59.44614726" lon="30.24765119">
        <ele>89.33</ele>
        <time>2026-08-29T20:18:54Z</time>
      </trkpt>
      <trkpt lat="59.44613776" lon="30.24744774">
        <ele>89.37</ele>
        <time>2026-08-29T20:19:02Z</time>
      </trkpt>
      <trkpt lat="59.44613648" lon="30.24725979">
        <ele>90.66</ele>
        <time>2026-08-29T20:19:10Z</time>
      </trkpt>
      <trkpt lat="59.44613244" lon="30.24707107">
        <ele>90.55</ele>
        <time>2026-08-29T20:19:19Z</time>
      </trkpt>
      <trkpt lat="59.44612681" lon="30.24689406">
        <ele>91.4</ele>
        <time>2026-08-29T20:19:26Z</time>
      </trkpt>
      <trkpt lat="59.44610915" lon="30.24669654">
        <ele>94.21</ele>
        <time>2026-08-29T20:19:33Z</time>
      </trkpt>
      <trkpt lat="59.44611103" lon="30.24650105">
        <ele>89.61</ele>
        <time>2026-08-29T20:20:57Z</time>
      </trkpt>
      <trkpt lat="59.44608937" lon="30.24631846">
        <ele>88.62</ele>
        <time>2026-08-29T20:21:06Z</time>
      </trkpt>
      <trkpt lat="59.44610429" lon="30.24612757">
        <ele>90.48</ele>
        <time>2026-08-29T20:21:14Z</time>
      </trkpt>
      <trkpt lat="59.44610206" lon="30.24593">
        <ele>91.33</ele>
        <time>2026-08-29T20:21:23Z</time>
      </trkpt>
      <trkpt lat="59.4460774" lon="30.24574252">
        <ele>92.98</ele>
        <time>2026-08-29T20:21:31Z</time>
      </trkpt>
      <trkpt lat="59.44608244" lon="30.2455654">
        <ele>91.16</ele>
        <time>2026-08-29T20:21:39Z</time>
      </trkpt>
      <trkpt lat="59.44607808" lon="30.24538546">
        <ele>90.47</ele>
        <time>2026-08-29T20:21:47Z</time>
      </trkpt>
      <trkpt lat="59.44607816" lon="30.24519615">
        <ele>90.64</ele>
        <time>2026-08-29T20:21:55Z</time>
      </trkpt>
      <trkpt lat="59.44607376" lon="30.24500668">
        <ele>91.77</ele>
        <time>2026-08-29T20:22:03Z</time>
      </trkpt>
      <trkpt lat="59.44606921" lon="30.2448291">
        <ele>92.5</ele>
        <time>2026-08-29T20:22:10Z</time>
      </trkpt>
      <trkpt lat="59.44606072" lon="30.24462907">
        <ele>93.09</ele>
        <time>2026-08-29T20:22:18Z</time>
      </trkpt>
      <trkpt lat="59.4460594" lon="30.2444344">
        <ele>95.18</ele>
        <time>2026-08-29T20:22:26Z</time>
      </trkpt>
      <trkpt lat="59.44605332" lon="30.24424832">
        <ele>95.54</ele>
        <time>2026-08-29T20:22:34Z</time>
      </trkpt>
      <trkpt lat="59.44605376" lon="30.24406967">
        <ele>95.12</ele>
        <time>2026-08-29T20:22:42Z</time>
      </trkpt>
      <trkpt lat="59.44604061" lon="30.24387458">
        <ele>91.61</ele>
        <time>2026-08-29T20:22:51Z</time>
      </trkpt>
      <trkpt lat="59.44604348" lon="30.24368425">
        <ele>91.34</ele>
        <time>2026-08-29T20:22:59Z</time>
      </trkpt>
      <trkpt lat="59.44602858" lon="30.24350692">
        <ele>89.42</ele>
        <time>2026-08-29T20:23:06Z</time>
      </trkpt>
      <trkpt lat="59.44602548" lon="30.24332223">
        <ele>92.59</ele>
        <time>2026-08-29T20:23:13Z</time>
      </trkpt>
      <trkpt lat="59.44603247" lon="30.2431349">
        <ele>93.59</ele>
        <time>2026-08-29T20:23:21Z</time>
      </trkpt>
      <trkpt lat="59.44600035" lon="30.24295671">
        <ele>93.77</ele>
        <time>2026-08-29T20:23:30Z</time>
      </trkpt>
      <trkpt lat="59.44600368" lon="30.24275915">
        <ele>93.26</ele>
        <time>2026-08-29T20:23:38Z</time>
      </trkpt>
      <trkpt lat="59.44600383" lon="30.2425631">
        <ele>91.63</ele>
        <time>2026-08-29T20:23:47Z</time>
      </trkpt>
      <trkpt lat="59.44599295" lon="30.2423857">
        <ele>92.02</ele>
        <time>2026-08-29T20:23:55Z</time>
      </trkpt>
      <trkpt lat="59.44598506" lon="30.24219659">
        <ele>93.68</ele>
        <time>2026-08-29T20:24:03Z</time>
      </trkpt>
      <trkpt lat="59.44594918" lon="30.24201935">
        <ele>94.93</ele>
        <time>2026-08-29T20:24:12Z</time>
      </trkpt>
      <trkpt lat="59.44592757" lon="30.24183976">
        <ele>91.65</ele>
        <time>2026-08-29T20:24:23Z</time>
      </trkpt>
      <trkpt lat="59.44593637" lon="30.2416577">
        <ele>91.48</ele>
        <time>2026-08-29T20:24:31Z</time>
      </trkpt>
      <trkpt lat="59.4459275" lon="30.24146357">
        <ele>90.36</ele>
        <time>2026-08-29T20:24:39Z</time>
      </trkpt>
      <trkpt lat="59.44595155" lon="30.24128924">
        <ele>93.24</ele>
        <time>2026-08-29T20:24:48Z</time>
      </trkpt>
      <trkpt lat="59.44594589" lon="30.24110895">
        <ele>90.42</ele>
        <time>2026-08-29T20:25:49Z</time>
      </trkpt>
      <trkpt lat="59.44593373" lon="30.24093381">
        <ele>89.32</ele>
        <time>2026-08-29T20:25:58Z</time>
      </trkpt>
      <trkpt lat="59.44593551" lon="30.24074351">
        <ele>92.15</ele>
        <time>2026-08-29T20:26:06Z</time>
      </trkpt>
      <trkpt lat="59.44592973" lon="30.2405474">
        <ele>92.6</ele>
        <time>2026-08-29T20:26:15Z</time>
      </trkpt>
      <trkpt lat="59.44593477" lon="30.24035001">
        <ele>93.49</ele>
        <time>2026-08-29T20:26:23Z</time>
      </trkpt>
      <trkpt lat="59.44591983" lon="30.24016165">
        <ele>94.7</ele>
        <time>2026-08-29T20:26:31Z</time>
      </trkpt>
      <trkpt lat="59.44588229" lon="30.23999699">
        <ele>95.1</ele>
        <time>2026-08-29T20:26:39Z</time>
      </trkpt>
      <trkpt lat="59.44589744" lon="30.23981465">
        <ele>94.11</ele>
        <time>2026-08-29T20:26:48Z</time>
      </trkpt>
      <trkpt lat="59.44588188" lon="30.23963449">
        <ele>93.84</ele>
        <time>2026-08-29T20:26:57Z</time>
      </trkpt>
      <trkpt lat="59.44587616" lon="30.23943952">
        <ele>92.76</ele>
        <time>2026-08-29T20:27:05Z</time>
      </trkpt>
      <trkpt lat="59.44586878" lon="30.23926196">
        <ele>91.8</ele>
        <time>2026-08-29T20:27:13Z</time>
      </trkpt>
      <trkpt lat="59.44584758" lon="30.23906495">
        <ele>92.55</ele>
        <time>2026-08-29T20:27:21Z</time>
      </trkpt>
      <trkpt lat="59.44583067" lon="30.23887794">
        <ele>92.54</ele>
        <time>2026-08-29T20:27:28Z</time>
      </trkpt>
      <trkpt lat="59.4458304" lon="30.23869963">
        <ele>93.05</ele>
        <time>2026-08-29T20:27:35Z</time>
      </trkpt>
      <trkpt lat="59.44582404" lon="30.23851257">
        <ele>91.64</ele>
        <time>2026-08-29T20:27:43Z</time>
      </trkpt>
      <trkpt lat="59.44582585" lon="30.23832689">
        <ele>92.13</ele>
        <time>2026-08-29T20:27:50Z</time>
      </trkpt>
      <trkpt lat="59.44583881" lon="30.23815069">
        <ele>90.05</ele>
        <time>2026-08-29T20:27:58Z</time>
      </trkpt>
      <trkpt lat="59.44583501" lon="30.23795548">
        <ele>87.43</ele>
        <time>2026-08-29T20:28:06Z</time>
      </trkpt>
      <trkpt lat="59.4458316" lon="30.2377582">
        <ele>87.75</ele>
        <time>2026-08-29T20:28:14Z</time>
      </trkpt>
      <trkpt lat="59.44584098" lon="30.23757132">
        <ele>88.38</ele>
        <time>2026-08-29T20:28:22Z</time>
      </trkpt>
      <trkpt lat="59.44584059" lon="30.23738359">
        <ele>88.44</ele>
        <time>2026-08-29T20:28:30Z</time>
      </trkpt>
      <trkpt lat="59.44583677" lon="30.23719404">
        <ele>88.67</ele>
        <time>2026-08-29T20:28:38Z</time>
      </trkpt>
      <trkpt lat="59.44581937" lon="30.23700379">
        <ele>87.69</ele>
        <time>2026-08-29T20:28:47Z</time>
      </trkpt>
      <trkpt lat="59.44581352" lon="30.23682425">
        <ele>87.68</ele>
        <time>2026-08-29T20:28:55Z</time>
      </trkpt>
      <trkpt lat="59.44581346" lon="30.23662885">
        <ele>87.4</ele>
        <time>2026-08-29T20:29:03Z</time>
      </trkpt>
      <trkpt lat="59.44580565" lon="30.23644892">
        <ele>87.28</ele>
        <time>2026-08-29T20:29:11Z</time>
      </trkpt>
      <trkpt lat="59.44579129" lon="30.23625877">
        <ele>89.4</ele>
        <time>2026-08-29T20:29:18Z</time>
      </trkpt>
      <trkpt lat="59.44576662" lon="30.23607876">
        <ele>90.21</ele>
        <time>2026-08-29T20:29:25Z</time>
      </trkpt>
      <trkpt lat="59.44578129" lon="30.23588613">
        <ele>89.76</ele>
        <time>2026-08-29T20:29:35Z</time>
      </trkpt>
      <trkpt lat="59.4457824" lon="30.23569524">
        <ele>89.31</ele>
        <time>2026-08-29T20:29:44Z</time>
      </trkpt>
      <trkpt lat="59.44579251" lon="30.23549971">
        <ele>86.43</ele>
        <time>2026-08-29T20:29:53Z</time>
      </trkpt>
      <trkpt lat="59.44578932" lon="30.23530687">
        <ele>86.68</ele>
        <time>2026-08-29T20:29:59Z</time>
      </trkpt>
      <trkpt lat="59.44578045" lon="30.23511384">
        <ele>85</ele>
        <time>2026-08-29T20:30:08Z</time>
      </trkpt>
      <trkpt lat="59.44579476" lon="30.234933">
        <ele>85.62</ele>
        <time>2026-08-29T20:30:18Z</time>
      </trkpt>
      <trkpt lat="59.44579274" lon="30.23473612">
        <ele>83.49</ele>
        <time>2026-08-29T20:31:20Z</time>
      </trkpt>
      <trkpt lat="59.44576297" lon="30.23455074">
        <ele>84.68</ele>
        <time>2026-08-29T20:31:26Z</time>
      </trkpt>
      <trkpt lat="59.44575449" lon="30.23435406">
        <ele>81.92</ele>
        <time>2026-08-29T20:31:34Z</time>
      </trkpt>
      <trkpt lat="59.44574436" lon="30.23416695">
        <ele>82.76</ele>
        <time>2026-08-29T20:31:41Z</time>
      </trkpt>
      <trkpt lat="59.44573835" lon="30.23397234">
        <ele>83.13</ele>
        <time>2026-08-29T20:31:49Z</time>
      </trkpt>
      <trkpt lat="59.44574021" lon="30.2337813">
        <ele>84.52</ele>
        <time>2026-08-29T20:31:57Z</time>
      </trkpt>
      <trkpt lat="59.44572546" lon="30.23358096">
        <ele>83.01</ele>
        <time>2026-08-29T20:32:05Z</time>
      </trkpt>
      <trkpt lat="59.44571346" lon="30.23337764">
        <ele>88.81</ele>
        <time>2026-08-29T20:32:12Z</time>
      </trkpt>
      <trkpt lat="59.4456888" lon="30.23319071">
        <ele>88.31</ele>
        <time>2026-08-29T20:32:19Z</time>
      </trkpt>
      <trkpt lat="59.4456862" lon="30.23301351">
        <ele>87.44</ele>
        <time>2026-08-29T20:32:26Z</time>
      </trkpt>
      <trkpt lat="59.44568056" lon="30.23281267">
        <ele>88.58</ele>
        <time>2026-08-29T20:32:33Z</time>
      </trkpt>
      <trkpt lat="59.44565665" lon="30.23262819">
        <ele>92.45</ele>
        <time>2026-08-29T20:32:39Z</time>
      </trkpt>
      <trkpt lat="59.44566594" lon="30.23243393">
        <ele>93.23</ele>
        <time>2026-08-29T20:32:47Z</time>
      </trkpt>
      <trkpt lat="59.44564686" lon="30.23225365">
        <ele>94.05</ele>
        <time>2026-08-29T20:32:53Z</time>
      </trkpt>
      <trkpt lat="59.4456432" lon="30.23206542">
        <ele>94.06</ele>
        <time>2026-08-29T20:33:00Z</time>
      </trkpt>
      <trkpt lat="59.44562173" lon="30.23189191">
        <ele>93.81</ele>
        <time>2026-08-29T20:33:07Z</time>
      </trkpt>
      <trkpt lat="59.44560958" lon="30.231702">
        <ele>94.56</ele>
        <time>2026-08-29T20:33:14Z</time>
      </trkpt>
      <trkpt lat="59.44559875" lon="30.23152685">
        <ele>94.25</ele>
        <time>2026-08-29T20:33:20Z</time>
      </trkpt>
      <trkpt lat="59.44559577" lon="30.23135034">
        <ele>94.65</ele>
        <time>2026-08-29T20:33:28Z</time>
      </trkpt>
      <trkpt lat="59.44561051" lon="30.23116701">
        <ele>95.46</ele>
        <time>2026-08-29T20:33:37Z</time>
      </trkpt>
      <trkpt lat="59.44560708" lon="30.23099075">
        <ele>93.85</ele>
        <time>2026-08-29T20:33:46Z</time>
      </trkpt>
      <trkpt lat="59.44558749" lon="30.23081226">
        <ele>95.44</ele>
        <time>2026-08-29T20:33:54Z</time>
      </trkpt>
      <trkpt lat="59.44554176" lon="30.23065271">
        <ele>94.47</ele>
        <time>2026-08-29T20:34:00Z</time>
      </trkpt>
      <trkpt lat="59.44554079" lon="30.23046564">
        <ele>94.96</ele>
        <time>2026-08-29T20:34:08Z</time>
      </trkpt>
      <trkpt lat="59.44554357" lon="30.23026971">
        <ele>93.37</ele>
        <time>2026-08-29T20:34:17Z</time>
      </trkpt>
      <trkpt lat="59.44554889" lon="30.23008472">
        <ele>90.85</ele>
        <time>2026-08-29T20:35:24Z</time>
      </trkpt>
      <trkpt lat="59.44553832" lon="30.22990714">
        <ele>88.88</ele>
        <time>2026-08-29T20:35:33Z</time>
      </trkpt>
      <trkpt lat="59.44551671" lon="30.22971953">
        <ele>88.71</ele>
        <time>2026-08-29T20:35:42Z</time>
      </trkpt>
      <trkpt lat="59.44553112" lon="30.22953204">
        <ele>90.76</ele>
        <time>2026-08-29T20:35:50Z</time>
      </trkpt>
      <trkpt lat="59.44553891" lon="30.22934378">
        <ele>90.05</ele>
        <time>2026-08-29T20:35:58Z</time>
      </trkpt>
      <trkpt lat="59.44553911" lon="30.22914894">
        <ele>90.47</ele>
        <time>2026-08-29T20:36:06Z</time>
      </trkpt>
      <trkpt lat="59.44553751" lon="30.22896349">
        <ele>89.76</ele>
        <time>2026-08-29T20:36:13Z</time>
      </trkpt>
      <trkpt lat="59.4455202" lon="30.2287859">
        <ele>92.37</ele>
        <time>2026-08-29T20:36:20Z</time>
      </trkpt>
      <trkpt lat="59.44551205" lon="30.22860266">
        <ele>92.52</ele>
        <time>2026-08-29T20:36:28Z</time>
      </trkpt>
      <trkpt lat="59.44551663" lon="30.228401">
        <ele>91.67</ele>
        <time>2026-08-29T20:36:36Z</time>
      </trkpt>
      <trkpt lat="59.44550276" lon="30.22821188">
        <ele>94.08</ele>
        <time>2026-08-29T20:36:43Z</time>
      </trkpt>
      <trkpt lat="59.44549191" lon="30.22803351">
        <ele>94.45</ele>
        <time>2026-08-29T20:36:51Z</time>
      </trkpt>
      <trkpt lat="59.44549178" lon="30.22783223">
        <ele>93.12</ele>
        <time>2026-08-29T20:36:59Z</time>
      </trkpt>
      <trkpt lat="59.4454652" lon="30.22762406">
        <ele>95.18</ele>
        <time>2026-08-29T20:37:06Z</time>
      </trkpt>
      <trkpt lat="59.44545779" lon="30.22742271">
        <ele>96.7</ele>
        <time>2026-08-29T20:37:12Z</time>
      </trkpt>
      <trkpt lat="59.44543984" lon="30.22723655">
        <ele>96.47</ele>
        <time>2026-08-29T20:37:20Z</time>
      </trkpt>
      <trkpt lat="59.44543347" lon="30.22705101">
        <ele>100.41</ele>
        <time>2026-08-29T20:37:26Z</time>
      </trkpt>
      <trkpt lat="59.44543476" lon="30.22686756">
        <ele>98.25</ele>
        <time>2026-08-29T20:37:34Z</time>
      </trkpt>
      <trkpt lat="59.44542022" lon="30.22668271">
        <ele>98.1</ele>
        <time>2026-08-29T20:37:41Z</time>
      </trkpt>
      <trkpt lat="59.44541359" lon="30.22648485">
        <ele>98.38</ele>
        <time>2026-08-29T20:37:48Z</time>
      </trkpt>
      <trkpt lat="59.44539704" lon="30.22631088">
        <ele>97.43</ele>
        <time>2026-08-29T20:37:55Z</time>
      </trkpt>
      <trkpt lat="59.44538895" lon="30.22612732">
        <ele>98.55</ele>
        <time>2026-08-29T20:38:00Z</time>
      </trkpt>
      <trkpt lat="59.44536083" lon="30.22594996">
        <ele>99.27</ele>
        <time>2026-08-29T20:38:07Z</time>
      </trkpt>
      <trkpt lat="59.44536987" lon="30.22577106">
        <ele>96.38</ele>
        <time>2026-08-29T20:38:15Z</time>
      </trkpt>
      <trkpt lat="59.44536687" lon="30.22559266">
        <ele>94.94</ele>
        <time>2026-08-29T20:38:23Z</time>
      </trkpt>
      <trkpt lat="59.44536689" lon="30.22540471">
        <ele>93.77</ele>
        <time>2026-08-29T20:38:31Z</time>
      </trkpt>
      <trkpt lat="59.44536762" lon="30.22522643">
        <ele>95.12</ele>
        <time>2026-08-29T20:38:38Z</time>
      </trkpt>
      <trkpt lat="59.4453392" lon="30.22503349">
        <ele>97.5</ele>
        <time>2026-08-29T20:38:45Z</time>
      </trkpt>
      <trkpt lat="59.44531243" lon="30.2248643">
        <ele>97.25</ele>
        <time>2026-08-29T20:38:52Z</time>
      </trkpt>
      <trkpt lat="59.4453031" lon="30.2246705">
        <ele>96.83</ele>
        <time>2026-08-29T20:39:00Z</time>
      </trkpt>
      <trkpt lat="59.44528979" lon="30.22447318">
        <ele>96</ele>
        <time>2026-08-29T20:39:08Z</time>
      </trkpt>
      <trkpt lat="59.44528435" lon="30.22427917">
        <ele>94.31</ele>
        <time>2026-08-29T20:39:16Z</time>
      </trkpt>
      <trkpt lat="59.44528864" lon="30.22408729">
        <ele>93.04</ele>
        <time>2026-08-29T20:39:24Z</time>
      </trkpt>
      <trkpt lat="59.445285" lon="30.22389873">
        <ele>91.08</ele>
        <time>2026-08-29T20:39:32Z</time>
      </trkpt>
      <trkpt lat="59.44525094" lon="30.22371056">
        <ele>93.23</ele>
        <time>2026-08-29T20:40:21Z</time>
      </trkpt>
      <trkpt lat="59.44525144" lon="30.22352823">
        <ele>92.89</ele>
        <time>2026-08-29T20:40:28Z</time>
      </trkpt>
      <trkpt lat="59.44525273" lon="30.22334354">
        <ele>95.51</ele>
        <time>2026-08-29T20:40:35Z</time>
      </trkpt>
      <trkpt lat="59.44523898" lon="30.22316489">
        <ele>94.03</ele>
        <time>2026-08-29T20:40:46Z</time>
      </trkpt>
      <trkpt lat="59.44522984" lon="30.22298089">
        <ele>95.41</ele>
        <time>2026-08-29T20:40:56Z</time>
      </trkpt>
      <trkpt lat="59.44525421" lon="30.22280303">
        <ele>92.93</ele>
        <time>2026-08-29T20:41:05Z</time>
      </trkpt>
      <trkpt lat="59.44524539" lon="30.22260904">
        <ele>95.18</ele>
        <time>2026-08-29T20:41:11Z</time>
      </trkpt>
      <trkpt lat="59.44522421" lon="30.22240402">
        <ele>99.77</ele>
        <time>2026-08-29T20:41:15Z</time>
      </trkpt>
      <trkpt lat="59.44521225" lon="30.22222779">
        <ele>98.61</ele>
        <time>2026-08-29T20:41:23Z</time>
      </trkpt>
      <trkpt lat="59.44521557" lon="30.22202996">
        <ele>100.71</ele>
        <time>2026-08-29T20:41:31Z</time>
      </trkpt>
      <trkpt lat="59.44519816" lon="30.22183852">
        <ele>96.79</ele>
        <time>2026-08-29T20:41:38Z</time>
      </trkpt>
      <trkpt lat="59.44518997" lon="30.22166065">
        <ele>96.47</ele>
        <time>2026-08-29T20:41:44Z</time>
      </trkpt>
      <trkpt lat="59.44518367" lon="30.22148368">
        <ele>95.8</ele>
        <time>2026-08-29T20:41:51Z</time>
      </trkpt>
      <trkpt lat="59.44517273" lon="30.22129702">
        <ele>95.36</ele>
        <time>2026-08-29T20:41:58Z</time>
      </trkpt>
      <trkpt lat="59.44514822" lon="30.22111234">
        <ele>97.27</ele>
        <time>2026-08-29T20:42:04Z</time>
      </trkpt>
      <trkpt lat="59.44513329" lon="30.22093042">
        <ele>97.01</ele>
        <time>2026-08-29T20:42:11Z</time>
      </trkpt>
      <trkpt lat="59.44512317" lon="30.22073837">
        <ele>98.78</ele>
        <time>2026-08-29T20:42:18Z</time>
      </trkpt>
      <trkpt lat="59.44512463" lon="30.22055592">
        <ele>97.96</ele>
        <time>2026-08-29T20:42:25Z</time>
      </trkpt>
      <trkpt lat="59.44511475" lon="30.22035762">
        <ele>97.67</ele>
        <time>2026-08-29T20:42:32Z</time>
      </trkpt>
      <trkpt lat="59.44509568" lon="30.22018377">
        <ele>95.66</ele>
        <time>2026-08-29T20:42:40Z</time>
      </trkpt>
      <trkpt lat="59.44508729" lon="30.21999663">
        <ele>95.66</ele>
        <time>2026-08-29T20:42:48Z</time>
      </trkpt>
      <trkpt lat="59.44507297" lon="30.2198158">
        <ele>94.82</ele>
        <time>2026-08-29T20:42:55Z</time>
      </trkpt>
      <trkpt lat="59.44507199" lon="30.21961497">
        <ele>95.19</ele>
        <time>2026-08-29T20:43:03Z</time>
      </trkpt>
      <trkpt lat="59.44507315" lon="30.21943486">
        <ele>95.52</ele>
        <time>2026-08-29T20:43:09Z</time>
      </trkpt>
      <trkpt lat="59.4450692" lon="30.21924312">
        <ele>96.61</ele>
        <time>2026-08-29T20:43:17Z</time>
      </trkpt>
      <trkpt lat="59.44506193" lon="30.21905051">
        <ele>96.83</ele>
        <time>2026-08-29T20:43:24Z</time>
      </trkpt>
      <trkpt lat="59.44505805" lon="30.2188616">
        <ele>98.44</ele>
        <time>2026-08-29T20:43:31Z</time>
      </trkpt>
      <trkpt lat="59.44506017" lon="30.21867653">
        <ele>100.58</ele>
        <time>2026-08-29T20:43:39Z</time>
      </trkpt>
      <trkpt lat="59.44504366" lon="30.21848912">
        <ele>99.07</ele>
        <time>2026-08-29T20:43:48Z</time>
      </trkpt>
      <trkpt lat="59.44501552" lon="30.21829886">
        <ele>97.33</ele>
        <time>2026-08-29T20:43:56Z</time>
      </trkpt>
      <trkpt lat="59.44500813" lon="30.21810862">
        <ele>98.65</ele>
        <time>2026-08-29T20:44:03Z</time>
      </trkpt>
      <trkpt lat="59.44499968" lon="30.21791444">
        <ele>99.12</ele>
        <time>2026-08-29T20:44:11Z</time>
      </trkpt>
      <trkpt lat="59.44498383" lon="30.21772176">
        <ele>99.34</ele>
        <time>2026-08-29T20:44:18Z</time>
      </trkpt>
      <trkpt lat="59.4449853" lon="30.2175451">
        <ele>99.74</ele>
        <time>2026-08-29T20:44:25Z</time>
      </trkpt>
      <trkpt lat="59.44497244" lon="30.21735286">
        <ele>103.6</ele>
        <time>2026-08-29T20:44:34Z</time>
      </trkpt>
      <trkpt lat="59.44496288" lon="30.21715548">
        <ele>101.71</ele>
        <time>2026-08-29T20:44:43Z</time>
      </trkpt>
      <trkpt lat="59.44493972" lon="30.21697613">
        <ele>101.24</ele>
        <time>2026-08-29T20:44:54Z</time>
      </trkpt>
      <trkpt lat="59.4449726" lon="30.21680538">
        <ele>95.98</ele>
        <time>2026-08-29T20:45:06Z</time>
      </trkpt>
      <trkpt lat="59.44497266" lon="30.21662501">
        <ele>94.78</ele>
        <time>2026-08-29T20:45:18Z</time>
      </trkpt>
      <trkpt lat="59.44498622" lon="30.21644453">
        <ele>93.62</ele>
        <time>2026-08-29T20:45:38Z</time>
      </trkpt>
      <trkpt lat="59.44496873" lon="30.21625978">
        <ele>90.87</ele>
        <time>2026-08-29T20:45:48Z</time>
      </trkpt>
      <trkpt lat="59.44496166" lon="30.21607303">
        <ele>91.97</ele>
        <time>2026-08-29T20:46:20Z</time>
      </trkpt>
      <trkpt lat="59.44495893" lon="30.21589194">
        <ele>92.58</ele>
        <time>2026-08-29T20:46:49Z</time>
      </trkpt>
      <trkpt lat="59.44493094" lon="30.21571199">
        <ele>94.56</ele>
        <time>2026-08-29T20:46:59Z</time>
      </trkpt>
      <trkpt lat="59.44492412" lon="30.21553048">
        <ele>92.53</ele>
        <time>2026-08-29T20:47:08Z</time>
      </trkpt>
      <trkpt lat="59.44491978" lon="30.21533596">
        <ele>90.36</ele>
        <time>2026-08-29T20:47:17Z</time>
      </trkpt>
      <trkpt lat="59.44493845" lon="30.21514472">
        <ele>89.76</ele>
        <time>2026-08-29T20:47:26Z</time>
      </trkpt>
      <trkpt lat="59.4449295" lon="30.21494886">
        <ele>91.77</ele>
        <time>2026-08-29T20:47:33Z</time>
      </trkpt>
      <trkpt lat="59.44491585" lon="30.2147611">
        <ele>91.57</ele>
        <time>2026-08-29T20:47:41Z</time>
      </trkpt>
      <trkpt lat="59.44491184" lon="30.21457448">
        <ele>91.02</ele>
        <time>2026-08-29T20:47:49Z</time>
      </trkpt>
      <trkpt lat="59.44489477" lon="30.21438463">
        <ele>90.57</ele>
        <time>2026-08-29T20:47:57Z</time>
      </trkpt>
      <trkpt lat="59.44489545" lon="30.2141941">
        <ele>92.2</ele>
        <time>2026-08-29T20:48:05Z</time>
      </trkpt>
      <trkpt lat="59.4448937" lon="30.21401272">
        <ele>90.4</ele>
        <time>2026-08-29T20:48:13Z</time>
      </trkpt>
      <trkpt lat="59.44488567" lon="30.21382293">
        <ele>88.97</ele>
        <time>2026-08-29T20:48:21Z</time>
      </trkpt>
      <trkpt lat="59.44489952" lon="30.21364619">
        <ele>89.62</ele>
        <time>2026-08-29T20:48:28Z</time>
      </trkpt>
      <trkpt lat="59.44490958" lon="30.21346823">
        <ele>90.81</ele>
        <time>2026-08-29T20:48:36Z</time>
      </trkpt>
      <trkpt lat="59.44490275" lon="30.21329132">
        <ele>93.13</ele>
        <time>2026-08-29T20:48:43Z</time>
      </trkpt>
      <trkpt lat="59.44487547" lon="30.21310976">
        <ele>92.87</ele>
        <time>2026-08-29T20:48:53Z</time>
      </trkpt>
      <trkpt lat="59.44486225" lon="30.21291834">
        <ele>92.28</ele>
        <time>2026-08-29T20:49:03Z</time>
      </trkpt>
      <trkpt lat="59.44485611" lon="30.21272887">
        <ele>93.26</ele>
        <time>2026-08-29T20:49:11Z</time>
      </trkpt>
      <trkpt lat="59.44483714" lon="30.21254086">
        <ele>93.4</ele>
        <time>2026-08-29T20:49:20Z</time>
      </trkpt>
      <trkpt lat="59.44482291" lon="30.21234865">
        <ele>92.52</ele>
        <time>2026-08-29T20:49:29Z</time>
      </trkpt>
      <trkpt lat="59.44481553" lon="30.21217274">
        <ele>93.48</ele>
        <time>2026-08-29T20:49:36Z</time>
      </trkpt>
      <trkpt lat="59.44480608" lon="30.21198595">
        <ele>91.57</ele>
        <time>2026-08-29T20:49:45Z</time>
      </trkpt>
      <trkpt lat="59.44479122" lon="30.21180274">
        <ele>89.1</ele>
        <time>2026-08-29T20:49:54Z</time>
      </trkpt>
      <trkpt lat="59.44477897" lon="30.21162223">
        <ele>89.9</ele>
        <time>2026-08-29T20:50:01Z</time>
      </trkpt>
      <trkpt lat="59.44477936" lon="30.21143849">
        <ele>89.74</ele>
        <time>2026-08-29T20:50:08Z</time>
      </trkpt>
      <trkpt lat="59.44478093" lon="30.21125021">
        <ele>89.67</ele>
        <time>2026-08-29T20:50:19Z</time>
      </trkpt>
      <trkpt lat="59.4447631" lon="30.21106915">
        <ele>90.61</ele>
        <time>2026-08-29T20:50:26Z</time>
      </trkpt>
      <trkpt lat="59.44476063" lon="30.21087761">
        <ele>90.24</ele>
        <time>2026-08-29T20:50:39Z</time>
      </trkpt>
      <trkpt lat="59.44474974" lon="30.21069151">
        <ele>89.52</ele>
        <time>2026-08-29T20:50:58Z</time>
      </trkpt>
      <trkpt lat="59.44473749" lon="30.21049891">
        <ele>88.03</ele>
        <time>2026-08-29T20:51:07Z</time>
      </trkpt>
      <trkpt lat="59.44472141" lon="30.21030907">
        <ele>88.21</ele>
        <time>2026-08-29T20:51:15Z</time>
      </trkpt>
      <trkpt lat="59.44471616" lon="30.21011089">
        <ele>91.53</ele>
        <time>2026-08-29T20:51:23Z</time>
      </trkpt>
      <trkpt lat="59.44471813" lon="30.20992015">
        <ele>92.54</ele>
        <time>2026-08-29T20:51:32Z</time>
      </trkpt>
      <trkpt lat="59.44473026" lon="30.20973332">
        <ele>93.47</ele>
        <time>2026-08-29T20:51:40Z</time>
      </trkpt>
      <trkpt lat="59.44471389" lon="30.20955484">
        <ele>94.48</ele>
        <time>2026-08-29T20:51:51Z</time>
      </trkpt>
      <trkpt lat="59.44469565" lon="30.20936753">
        <ele>92.94</ele>
        <time>2026-08-29T20:52:01Z</time>
      </trkpt>
      <trkpt lat="59.44468639" lon="30.20917543">
        <ele>91.46</ele>
        <time>2026-08-29T20:52:10Z</time>
      </trkpt>
      <trkpt lat="59.44466847" lon="30.20898121">
        <ele>90.71</ele>
        <time>2026-08-29T20:52:18Z</time>
      </trkpt>
      <trkpt lat="59.44466229" lon="30.20879209">
        <ele>92.38</ele>
        <time>2026-08-29T20:52:26Z</time>
      </trkpt>
      <trkpt lat="59.44465731" lon="30.20859885">
        <ele>92.32</ele>
        <time>2026-08-29T20:52:34Z</time>
      </trkpt>
      <trkpt lat="59.44463861" lon="30.20841368">
        <ele>92.43</ele>
        <time>2026-08-29T20:52:42Z</time>
      </trkpt>
      <trkpt lat="59.44463382" lon="30.20823296">
        <ele>91.82</ele>
        <time>2026-08-29T20:52:49Z</time>
      </trkpt>
      <trkpt lat="59.44464514" lon="30.20805198">
        <ele>91.56</ele>
        <time>2026-08-29T20:52:56Z</time>
      </trkpt>
      <trkpt lat="59.44464915" lon="30.20783204">
        <ele>90.21</ele>
        <time>2026-08-29T20:53:12Z</time>
      </trkpt>
      <trkpt lat="59.44465248" lon="30.20764854">
        <ele>89.21</ele>
        <time>2026-08-29T20:53:38Z</time>
      </trkpt>
      <trkpt lat="59.44464926" lon="30.20745338">
        <ele>89.09</ele>
        <time>2026-08-29T20:53:47Z</time>
      </trkpt>
      <trkpt lat="59.44464737" lon="30.20765122">
        <ele>83.97</ele>
        <time>2026-08-29T20:55:00Z</time>
      </trkpt>
      <trkpt lat="59.44466418" lon="30.20783146">
        <ele>84.76</ele>
        <time>2026-08-29T20:55:09Z</time>
      </trkpt>
      <trkpt lat="59.4446599" lon="30.20802288">
        <ele>86.14</ele>
        <time>2026-08-29T20:55:19Z</time>
      </trkpt>
      <trkpt lat="59.44466681" lon="30.20820912">
        <ele>84.59</ele>
        <time>2026-08-29T20:55:32Z</time>
      </trkpt>
      <trkpt lat="59.44465831" lon="30.20839711">
        <ele>89.72</ele>
        <time>2026-08-29T20:55:39Z</time>
      </trkpt>
      <trkpt lat="59.44466594" lon="30.20857876">
        <ele>91.06</ele>
        <time>2026-08-29T20:55:47Z</time>
      </trkpt>
      <trkpt lat="59.44467929" lon="30.20875717">
        <ele>90.85</ele>
        <time>2026-08-29T20:55:55Z</time>
      </trkpt>
      <trkpt lat="59.44470155" lon="30.20893996">
        <ele>91.13</ele>
        <time>2026-08-29T20:56:03Z</time>
      </trkpt>
      <trkpt lat="59.44470673" lon="30.20913445">
        <ele>88.84</ele>
        <time>2026-08-29T20:56:11Z</time>
      </trkpt>
      <trkpt lat="59.44471562" lon="30.20932594">
        <ele>87.67</ele>
        <time>2026-08-29T20:56:19Z</time>
      </trkpt>
      <trkpt lat="59.44470628" lon="30.20951229">
        <ele>87.76</ele>
        <time>2026-08-29T20:56:27Z</time>
      </trkpt>
      <trkpt lat="59.44472613" lon="30.20969634">
        <ele>87.45</ele>
        <time>2026-08-29T20:56:36Z</time>
      </trkpt>
      <trkpt lat="59.44474172" lon="30.20988429">
        <ele>88.43</ele>
        <time>2026-08-29T20:56:44Z</time>
      </trkpt>
      <trkpt lat="59.44473469" lon="30.21007872">
        <ele>88.07</ele>
        <time>2026-08-29T20:56:54Z</time>
      </trkpt>
      <trkpt lat="59.44474183" lon="30.21026055">
        <ele>90.85</ele>
        <time>2026-08-29T20:57:04Z</time>
      </trkpt>
      <trkpt lat="59.44474684" lon="30.21043954">
        <ele>92.47</ele>
        <time>2026-08-29T20:57:15Z</time>
      </trkpt>
      <trkpt lat="59.44474273" lon="30.21061702">
        <ele>91.31</ele>
        <time>2026-08-29T20:57:28Z</time>
      </trkpt>
      <trkpt lat="59.44479788" lon="30.21077117">
        <ele>94.55</ele>
        <time>2026-08-29T20:57:38Z</time>
      </trkpt>
      <trkpt lat="59.44488425" lon="30.21071671">
        <ele>96.12</ele>
        <time>2026-08-29T20:57:48Z</time>
      </trkpt>
      <trkpt lat="59.44498431" lon="30.21070998">
        <ele>95.12</ele>
        <time>2026-08-29T20:57:55Z</time>
      </trkpt>
      <trkpt lat="59.44508666" lon="30.21065649">
        <ele>89.09</ele>
        <time>2026-08-29T20:58:04Z</time>
      </trkpt>
      <trkpt lat="59.44517433" lon="30.21073856">
        <ele>87.86</ele>
        <time>2026-08-29T20:58:12Z</time>
      </trkpt>
      <trkpt lat="59.4452639" lon="30.21071853">
        <ele>90.49</ele>
        <time>2026-08-29T20:59:01Z</time>
      </trkpt>
      <trkpt lat="59.44536016" lon="30.21070282">
        <ele>88.33</ele>
        <time>2026-08-29T20:59:09Z</time>
      </trkpt>
      <trkpt lat="59.44543136" lon="30.21058576">
        <ele>89.94</ele>
        <time>2026-08-29T20:59:16Z</time>
      </trkpt>
      <trkpt lat="59.4455206" lon="30.21061131">
        <ele>89.59</ele>
        <time>2026-08-29T20:59:24Z</time>
      </trkpt>
      <trkpt lat="59.44561105" lon="30.21064628">
        <ele>87.66</ele>
        <time>2026-08-29T20:59:32Z</time>
      </trkpt>
      <trkpt lat="59.44570766" lon="30.2106573">
        <ele>89.6</ele>
        <time>2026-08-29T20:59:39Z</time>
      </trkpt>
      <trkpt lat="59.44580492" lon="30.21060641">
        <ele>90.22</ele>
        <time>2026-08-29T20:59:47Z</time>
      </trkpt>
      <trkpt lat="59.44590101" lon="30.21062349">
        <ele>93.97</ele>
        <time>2026-08-29T20:59:54Z</time>
      </trkpt>
      <trkpt lat="59.44599704" lon="30.21061826">
        <ele>94.14</ele>
        <time>2026-08-29T21:00:02Z</time>
      </trkpt>
      <trkpt lat="59.44609676" lon="30.21061182">
        <ele>94.01</ele>
        <time>2026-08-29T21:00:10Z</time>
      </trkpt>
      <trkpt lat="59.44619083" lon="30.21059017">
        <ele>90.7</ele>
        <time>2026-08-29T21:00:18Z</time>
      </trkpt>
      <trkpt lat="59.44627861" lon="30.21053361">
        <ele>91.31</ele>
        <time>2026-08-29T21:00:26Z</time>
      </trkpt>
      <trkpt lat="59.44637575" lon="30.21055193">
        <ele>92.29</ele>
        <time>2026-08-29T21:00:34Z</time>
      </trkpt>
      <trkpt lat="59.44647941" lon="30.21059423">
        <ele>93.62</ele>
        <time>2026-08-29T21:00:42Z</time>
      </trkpt>
      <trkpt lat="59.44659149" lon="30.21058923">
        <ele>98.86</ele>
        <time>2026-08-29T21:00:46Z</time>
      </trkpt>
      <trkpt lat="59.44668034" lon="30.21055228">
        <ele>95.46</ele>
        <time>2026-08-29T21:00:58Z</time>
      </trkpt>
      <trkpt lat="59.44677458" lon="30.21053991">
        <ele>96.14</ele>
        <time>2026-08-29T21:01:10Z</time>
      </trkpt>
      <trkpt lat="59.44686029" lon="30.21047493">
        <ele>89.88</ele>
        <time>2026-08-29T21:01:20Z</time>
      </trkpt>
      <trkpt lat="59.44695224" lon="30.21045884">
        <ele>89.71</ele>
        <time>2026-08-29T21:01:28Z</time>
      </trkpt>
      <trkpt lat="59.44704302" lon="30.2104568">
        <ele>94.21</ele>
        <time>2026-08-29T21:01:34Z</time>
      </trkpt>
      <trkpt lat="59.44714755" lon="30.21046063">
        <ele>97.2</ele>
        <time>2026-08-29T21:01:43Z</time>
      </trkpt>
      <trkpt lat="59.44723602" lon="30.21041917">
        <ele>99.97</ele>
        <time>2026-08-29T21:01:51Z</time>
      </trkpt>
      <trkpt lat="59.4473191" lon="30.21050887">
        <ele>96.3</ele>
        <time>2026-08-29T21:02:42Z</time>
      </trkpt>
      <trkpt lat="59.44740879" lon="30.21047642">
        <ele>93.38</ele>
        <time>2026-08-29T21:02:57Z</time>
      </trkpt>
      <trkpt lat="59.44749926" lon="30.21043863">
        <ele>87.71</ele>
        <time>2026-08-29T21:03:09Z</time>
      </trkpt>
      <trkpt lat="59.44759142" lon="30.21041229">
        <ele>84.4</ele>
        <time>2026-08-29T21:03:18Z</time>
      </trkpt>
      <trkpt lat="59.44769535" lon="30.2104449">
        <ele>87.44</ele>
        <time>2026-08-29T21:03:26Z</time>
      </trkpt>
      <trkpt lat="59.44778295" lon="30.21052113">
        <ele>90.13</ele>
        <time>2026-08-29T21:03:33Z</time>
      </trkpt>
      <trkpt lat="59.44788267" lon="30.21053065">
        <ele>90.17</ele>
        <time>2026-08-29T21:03:41Z</time>
      </trkpt>
      <trkpt lat="59.44796432" lon="30.21044787">
        <ele>90.36</ele>
        <time>2026-08-29T21:03:53Z</time>
      </trkpt>
      <trkpt lat="59.44806008" lon="30.21045047">
        <ele>91.42</ele>
        <time>2026-08-29T21:04:04Z</time>
      </trkpt>
      <trkpt lat="59.44815344" lon="30.21041685">
        <ele>91.69</ele>
        <time>2026-08-29T21:04:14Z</time>
      </trkpt>
      <trkpt lat="59.44824636" lon="30.21040047">
        <ele>90.08</ele>
        <time>2026-08-29T21:04:27Z</time>
      </trkpt>
      <trkpt lat="59.448345" lon="30.21035466">
        <ele>88.42</ele>
        <time>2026-08-29T21:04:36Z</time>
      </trkpt>
      <trkpt lat="59.44843299" lon="30.21030477">
        <ele>87.19</ele>
        <time>2026-08-29T21:04:46Z</time>
      </trkpt>
      <trkpt lat="59.44852687" lon="30.21027312">
        <ele>86.54</ele>
        <time>2026-08-29T21:04:56Z</time>
      </trkpt>
      <trkpt lat="59.44862057" lon="30.21026144">
        <ele>85.1</ele>
        <time>2026-08-29T21:05:09Z</time>
      </trkpt>
      <trkpt lat="59.44871381" lon="30.21033259">
        <ele>84.21</ele>
        <time>2026-08-29T21:05:18Z</time>
      </trkpt>
      <trkpt lat="59.4488095" lon="30.21035766">
        <ele>85.99</ele>
        <time>2026-08-29T21:05:26Z</time>
      </trkpt>
      <trkpt lat="59.44890757" lon="30.21037151">
        <ele>90.07</ele>
        <time>2026-08-29T21:05:33Z</time>
      </trkpt>
      <trkpt lat="59.4490004" lon="30.21034164">
        <ele>87.76</ele>
        <time>2026-08-29T21:05:45Z</time>
      </trkpt>
      <trkpt lat="59.44909617" lon="30.21030528">
        <ele>88.19</ele>
        <time>2026-08-29T21:05:55Z</time>
      </trkpt>
      <trkpt lat="59.4491884" lon="30.21034694">
        <ele>89.07</ele>
        <time>2026-08-29T21:06:05Z</time>
      </trkpt>
      <trkpt lat="59.44928419" lon="30.2103153">
        <ele>88.23</ele>
        <time>2026-08-29T21:06:15Z</time>
      </trkpt>
      <trkpt lat="59.44937256" lon="30.21026082">
        <ele>88.97</ele>
        <time>2026-08-29T21:07:15Z</time>
      </trkpt>
      <trkpt lat="59.44946063" lon="30.21022651">
        <ele>87.84</ele>
        <time>2026-08-29T21:07:24Z</time>
      </trkpt>
      <trkpt lat="59.44955161" lon="30.21027131">
        <ele>89.08</ele>
        <time>2026-08-29T21:07:33Z</time>
      </trkpt>
      <trkpt lat="59.44965177" lon="30.21028583">
        <ele>88.25</ele>
        <time>2026-08-29T21:07:42Z</time>
      </trkpt>
      <trkpt lat="59.44974858" lon="30.21029978">
        <ele>88.37</ele>
        <time>2026-08-29T21:07:51Z</time>
      </trkpt>
      <trkpt lat="59.44984729" lon="30.21029872">
        <ele>87.46</ele>
        <time>2026-08-29T21:08:01Z</time>
      </trkpt>
      <trkpt lat="59.44993174" lon="30.21037428">
        <ele>91.15</ele>
        <time>2026-08-29T21:08:15Z</time>
      </trkpt>
      <trkpt lat="59.44995119" lon="30.21057169">
        <ele>92.41</ele>
        <time>2026-08-29T21:08:24Z</time>
      </trkpt>
      <trkpt lat="59.45004628" lon="30.21062197">
        <ele>86.96</ele>
        <time>2026-08-29T21:08:36Z</time>
      </trkpt>
      <trkpt lat="59.45013949" lon="30.21068377">
        <ele>84.02</ele>
        <time>2026-08-29T21:08:47Z</time>
      </trkpt>
      <trkpt lat="59.45024042" lon="30.21072492">
        <ele>85.4</ele>
        <time>2026-08-29T21:08:55Z</time>
      </trkpt>
      <trkpt lat="59.4503134" lon="30.21082851">
        <ele>82.4</ele>
        <time>2026-08-29T21:09:03Z</time>
      </trkpt>
      <trkpt lat="59.45035971" lon="30.21099793">
        <ele>80.11</ele>
        <time>2026-08-29T21:09:11Z</time>
      </trkpt>
      <trkpt lat="59.45041279" lon="30.2111515">
        <ele>79.97</ele>
        <time>2026-08-29T21:09:19Z</time>
      </trkpt>
      <trkpt lat="59.4504845" lon="30.21126405">
        <ele>81.41</ele>
        <time>2026-08-29T21:09:27Z</time>
      </trkpt>
      <trkpt lat="59.45056638" lon="30.21135458">
        <ele>82.06</ele>
        <time>2026-08-29T21:09:36Z</time>
      </trkpt>
      <trkpt lat="59.45064206" lon="30.2114646">
        <ele>83.78</ele>
        <time>2026-08-29T21:09:43Z</time>
      </trkpt>
      <trkpt lat="59.4506988" lon="30.21161207">
        <ele>82.45</ele>
        <time>2026-08-29T21:09:51Z</time>
      </trkpt>
      <trkpt lat="59.45077933" lon="30.21169077">
        <ele>82.95</ele>
        <time>2026-08-29T21:09:59Z</time>
      </trkpt>
      <trkpt lat="59.45086259" lon="30.21177926">
        <ele>88.74</ele>
        <time>2026-08-29T21:10:06Z</time>
      </trkpt>
      <trkpt lat="59.4509445" lon="30.21187207">
        <ele>90.28</ele>
        <time>2026-08-29T21:10:16Z</time>
      </trkpt>
      <trkpt lat="59.45099662" lon="30.21202534">
        <ele>88.98</ele>
        <time>2026-08-29T21:11:08Z</time>
      </trkpt>
      <trkpt lat="59.4509943" lon="30.21221945">
        <ele>88.97</ele>
        <time>2026-08-29T21:11:17Z</time>
      </trkpt>
      <trkpt lat="59.45107281" lon="30.21231154">
        <ele>86.31</ele>
        <time>2026-08-29T21:11:25Z</time>
      </trkpt>
      <trkpt lat="59.45116825" lon="30.21236912">
        <ele>88.19</ele>
        <time>2026-08-29T21:11:33Z</time>
      </trkpt>
      <trkpt lat="59.45124187" lon="30.21247123">
        <ele>89.73</ele>
        <time>2026-08-29T21:11:40Z</time>
      </trkpt>
      <trkpt lat="59.45130231" lon="30.21261198">
        <ele>90.63</ele>
        <time>2026-08-29T21:11:47Z</time>
      </trkpt>
      <trkpt lat="59.45139995" lon="30.21258927">
        <ele>91.51</ele>
        <time>2026-08-29T21:11:59Z</time>
      </trkpt>
      <trkpt lat="59.45144128" lon="30.2127653">
        <ele>91.56</ele>
        <time>2026-08-29T21:12:11Z</time>
      </trkpt>
      <trkpt lat="59.45153755" lon="30.21281277">
        <ele>90.33</ele>
        <time>2026-08-29T21:12:21Z</time>
      </trkpt>
      <trkpt lat="59.45160856" lon="30.21293654">
        <ele>89.23</ele>
        <time>2026-08-29T21:12:35Z</time>
      </trkpt>
      <trkpt lat="59.4516816" lon="30.21304959">
        <ele>85.27</ele>
        <time>2026-08-29T21:12:50Z</time>
      </trkpt>
      <trkpt lat="59.45173422" lon="30.21320632">
        <ele>88.9</ele>
        <time>2026-08-29T21:13:01Z</time>
      </trkpt>
      <trkpt lat="59.45182418" lon="30.21319566">
        <ele>92.93</ele>
        <time>2026-08-29T21:13:10Z</time>
      </trkpt>
      <trkpt lat="59.45190756" lon="30.21328926">
        <ele>90.39</ele>
        <time>2026-08-29T21:13:23Z</time>
      </trkpt>
      <trkpt lat="59.45199115" lon="30.21338512">
        <ele>87.76</ele>
        <time>2026-08-29T21:13:35Z</time>
      </trkpt>
      <trkpt lat="59.4520688" lon="30.21352588">
        <ele>86.49</ele>
        <time>2026-08-29T21:13:48Z</time>
      </trkpt>
      <trkpt lat="59.45213292" lon="30.21366471">
        <ele>84.99</ele>
        <time>2026-08-29T21:13:57Z</time>
      </trkpt>
      <trkpt lat="59.45220017" lon="30.21379508">
        <ele>85.94</ele>
        <time>2026-08-29T21:14:06Z</time>
      </trkpt>
      <trkpt lat="59.45226246" lon="30.21394012">
        <ele>86.34</ele>
        <time>2026-08-29T21:14:16Z</time>
      </trkpt>
      <trkpt lat="59.45234714" lon="30.21403718">
        <ele>84.42</ele>
        <time>2026-08-29T21:14:25Z</time>
      </trkpt>
      <trkpt lat="59.45241745" lon="30.21414839">
        <ele>80.77</ele>
        <time>2026-08-29T21:14:45Z</time>
      </trkpt>
      <trkpt lat="59.45242649" lon="30.21433928">
        <ele>81.6</ele>
        <time>2026-08-29T21:15:27Z</time>
      </trkpt>
      <trkpt lat="59.45239643" lon="30.21451755">
        <ele>83.39</ele>
        <time>2026-08-29T21:15:45Z</time>
      </trkpt>
      <trkpt lat="59.45235677" lon="30.21467918">
        <ele>87.02</ele>
        <time>2026-08-29T21:16:08Z</time>
      </trkpt>
      <trkpt lat="59.45230271" lon="30.21483288">
        <ele>88.66</ele>
        <time>2026-08-29T21:16:22Z</time>
      </trkpt>
      <trkpt lat="59.45225895" lon="30.21499054">
        <ele>90.07</ele>
        <time>2026-08-29T21:16:30Z</time>
      </trkpt>
      <trkpt lat="59.45224973" lon="30.21519674">
        <ele>89.33</ele>
        <time>2026-08-29T21:16:43Z</time>
      </trkpt>
      <trkpt lat="59.45219101" lon="30.21533027">
        <ele>90.05</ele>
        <time>2026-08-29T21:16:52Z</time>
      </trkpt>
      <trkpt lat="59.45218994" lon="30.21551176">
        <ele>91.51</ele>
        <time>2026-08-29T21:16:59Z</time>
      </trkpt>
      <trkpt lat="59.45220225" lon="30.21570351">
        <ele>90.98</ele>
        <time>2026-08-29T21:17:08Z</time>
      </trkpt>
      <trkpt lat="59.45225806" lon="30.21584586">
        <ele>89.09</ele>
        <time>2026-08-29T21:17:22Z</time>
      </trkpt>
      <trkpt lat="59.45229845" lon="30.21601174">
        <ele>93.2</ele>
        <time>2026-08-29T21:17:31Z</time>
      </trkpt>
      <trkpt lat="59.45239535" lon="30.21609074">
        <ele>96.08</ele>
        <time>2026-08-29T21:17:41Z</time>
      </trkpt>
      <trkpt lat="59.45247837" lon="30.21619283">
        <ele>96.06</ele>
        <time>2026-08-29T21:17:51Z</time>
      </trkpt>
      <trkpt lat="59.45256987" lon="30.21615478">
        <ele>96.99</ele>
        <time>2026-08-29T21:18:01Z</time>
      </trkpt>
      <trkpt lat="59.45264936" lon="30.21627124">
        <ele>92.73</ele>
        <time>2026-08-29T21:18:13Z</time>
      </trkpt>
      <trkpt lat="59.4526678" lon="30.21644636">
        <ele>92.04</ele>
        <time>2026-08-29T21:18:21Z</time>
      </trkpt>
      <trkpt lat="59.4527268" lon="30.21661003">
        <ele>93.66</ele>
        <time>2026-08-29T21:18:29Z</time>
      </trkpt>
      <trkpt lat="59.45281731" lon="30.21665722">
        <ele>95.03</ele>
        <time>2026-08-29T21:18:38Z</time>
      </trkpt>
      <trkpt lat="59.45288515" lon="30.21677649">
        <ele>96</ele>
        <time>2026-08-29T21:18:47Z</time>
      </trkpt>
      <trkpt lat="59.45296472" lon="30.21689272">
        <ele>92.39</ele>
        <time>2026-08-29T21:19:04Z</time>
      </trkpt>
      <trkpt lat="59.45305704" lon="30.21693459">
        <ele>92.6</ele>
        <time>2026-08-29T21:19:14Z</time>
      </trkpt>
      <trkpt lat="59.45312456" lon="30.21705145">
        <ele>92.74</ele>
        <time>2026-08-29T21:19:22Z</time>
      </trkpt>
      <trkpt lat="59.45320383" lon="30.21714205">
        <ele>94.47</ele>
        <time>2026-08-29T21:19:30Z</time>
      </trkpt>
      <trkpt lat="59.45324843" lon="30.21730226">
        <ele>93.79</ele>
        <time>2026-08-29T21:19:44Z</time>
      </trkpt>
      <trkpt lat="59.45331606" lon="30.21743874">
        <ele>89.75</ele>
        <time>2026-08-29T21:19:55Z</time>
      </trkpt>
      <trkpt lat="59.45339191" lon="30.21753876">
        <ele>92.38</ele>
        <time>2026-08-29T21:20:04Z</time>
      </trkpt>
      <trkpt lat="59.4534453" lon="30.21769561">
        <ele>86.89</ele>
        <time>2026-08-29T21:20:23Z</time>
      </trkpt>
      <trkpt lat="59.45351562" lon="30.21781019">
        <ele>88.22</ele>
        <time>2026-08-29T21:21:17Z</time>
      </trkpt>
      <trkpt lat="59.4535819" lon="30.21793025">
        <ele>86.33</ele>
        <time>2026-08-29T21:21:26Z</time>
      </trkpt>
      <trkpt lat="59.45364925" lon="30.21805664">
        <ele>88.21</ele>
        <time>2026-08-29T21:21:35Z</time>
      </trkpt>
      <trkpt lat="59.45372557" lon="30.21817092">
        <ele>86.8</ele>
        <time>2026-08-29T21:21:48Z</time>
      </trkpt>
      <trkpt lat="59.45378144" lon="30.21832354">
        <ele>86.78</ele>
        <time>2026-08-29T21:21:56Z</time>
      </trkpt>
      <trkpt lat="59.45384304" lon="30.21848353">
        <ele>88.5</ele>
        <time>2026-08-29T21:22:03Z</time>
      </trkpt>
      <trkpt lat="59.45391393" lon="30.21861924">
        <ele>88.2</ele>
        <time>2026-08-29T21:22:15Z</time>
      </trkpt>
      <trkpt lat="59.45401086" lon="30.21858129">
        <ele>88.5</ele>
        <time>2026-08-29T21:22:31Z</time>
      </trkpt>
      <trkpt lat="59.45410213" lon="30.21858796">
        <ele>91.18</ele>
        <time>2026-08-29T21:22:39Z</time>
      </trkpt>
      <trkpt lat="59.45419838" lon="30.21859841">
        <ele>88.1</ele>
        <time>2026-08-29T21:22:57Z</time>
      </trkpt>
      <trkpt lat="59.45429102" lon="30.218591">
        <ele>89.11</ele>
        <time>2026-08-29T21:23:06Z</time>
      </trkpt>
      <trkpt lat="59.45437941" lon="30.21863068">
        <ele>88.38</ele>
        <time>2026-08-29T21:23:15Z</time>
      </trkpt>
      <trkpt lat="59.45442939" lon="30.21879496">
        <ele>85.61</ele>
        <time>2026-08-29T21:23:28Z</time>
      </trkpt>
      <trkpt lat="59.45445945" lon="30.21897223">
        <ele>85.54</ele>
        <time>2026-08-29T21:23:37Z</time>
      </trkpt>
      <trkpt lat="59.45447767" lon="30.21914488">
        <ele>85.48</ele>
        <time>2026-08-29T21:24:07Z</time>
      </trkpt>
      <trkpt lat="59.4544911" lon="30.2193291">
        <ele>84.59</ele>
        <time>2026-08-29T21:24:17Z</time>
      </trkpt>
      <trkpt lat="59.45449386" lon="30.21951948">
        <ele>82.91</ele>
        <time>2026-08-29T21:24:28Z</time>
      </trkpt>
      <trkpt lat="59.45448276" lon="30.21970568">
        <ele>83.08</ele>
        <time>2026-08-29T21:24:38Z</time>
      </trkpt>
      <trkpt lat="59.45452145" lon="30.21989619">
        <ele>83.28</ele>
        <time>2026-08-29T21:24:47Z</time>
      </trkpt>
      <trkpt lat="59.45460394" lon="30.22002083">
        <ele>90.53</ele>
        <time>2026-08-29T21:24:52Z</time>
      </trkpt>
      <trkpt lat="59.45469852" lon="30.22001395">
        <ele>91.64</ele>
        <time>2026-08-29T21:25:06Z</time>
      </trkpt>
      <trkpt lat="59.45460462" lon="30.22002411">
        <ele>84.8</ele>
        <time>2026-08-29T21:26:40Z</time>
      </trkpt>
      <trkpt lat="59.45451525" lon="30.22005028">
        <ele>82.54</ele>
        <time>2026-08-29T21:26:53Z</time>
      </trkpt>
      <trkpt lat="59.45444873" lon="30.22017666">
        <ele>81.53</ele>
        <time>2026-08-29T21:27:25Z</time>
      </trkpt>
      <trkpt lat="59.4543952" lon="30.22032895">
        <ele>84.3</ele>
        <time>2026-08-29T21:27:36Z</time>
      </trkpt>
      <trkpt lat="59.45435581" lon="30.22049442">
        <ele>85.29</ele>
        <time>2026-08-29T21:27:51Z</time>
      </trkpt>
      <trkpt lat="59.45429146" lon="30.22062064">
        <ele>85.28</ele>
        <time>2026-08-29T21:28:07Z</time>
      </trkpt>
      <trkpt lat="59.45424184" lon="30.22076969">
        <ele>84.96</ele>
        <time>2026-08-29T21:28:21Z</time>
      </trkpt>
      <trkpt lat="59.45427955" lon="30.22093968">
        <ele>87.53</ele>
        <time>2026-08-29T21:28:39Z</time>
      </trkpt>
      <trkpt lat="59.4543349" lon="30.22108831">
        <ele>86.4</ele>
        <time>2026-08-29T21:28:51Z</time>
      </trkpt>
      <trkpt lat="59.45439117" lon="30.22124139">
        <ele>85.18</ele>
        <time>2026-08-29T21:29:05Z</time>
      </trkpt>
      <trkpt lat="59.45434675" lon="30.22140197">
        <ele>85.61</ele>
        <time>2026-08-29T21:29:20Z</time>
      </trkpt>
      <trkpt lat="59.45429597" lon="30.22155159">
        <ele>86.09</ele>
        <time>2026-08-29T21:29:42Z</time>
      </trkpt>
      <trkpt lat="59.45421235" lon="30.22164171">
        <ele>86.94</ele>
        <time>2026-08-29T21:29:58Z</time>
      </trkpt>
      <trkpt lat="59.45420188" lon="30.22183169">
        <ele>87.11</ele>
        <time>2026-08-29T21:30:13Z</time>
      </trkpt>
      <trkpt lat="59.45425096" lon="30.2219864">
        <ele>91.61</ele>
        <time>2026-08-29T21:30:23Z</time>
      </trkpt>
      <trkpt lat="59.45430021" lon="30.22214457">
        <ele>90.01</ele>
        <time>2026-08-29T21:30:39Z</time>
      </trkpt>
      <trkpt lat="59.45436546" lon="30.22226652">
        <ele>91.38</ele>
        <time>2026-08-29T21:30:57Z</time>
      </trkpt>
      <trkpt lat="59.45443245" lon="30.22238884">
        <ele>89.21</ele>
        <time>2026-08-29T21:31:21Z</time>
      </trkpt>
      <trkpt lat="59.45450496" lon="30.22250059">
        <ele>88.11</ele>
        <time>2026-08-29T21:31:37Z</time>
      </trkpt>
      <trkpt lat="59.45450857" lon="30.22267984">
        <ele>86.86</ele>
        <time>2026-08-29T21:31:52Z</time>
      </trkpt>
      <trkpt lat="59.45457538" lon="30.22280935">
        <ele>87.03</ele>
        <time>2026-08-29T21:32:08Z</time>
      </trkpt>
      <trkpt lat="59.45458888" lon="30.22299365">
        <ele>85.28</ele>
        <time>2026-08-29T21:32:20Z</time>
      </trkpt>
      <trkpt lat="59.45462393" lon="30.22317285">
        <ele>85.6</ele>
        <time>2026-08-29T21:33:13Z</time>
      </trkpt>
      <trkpt lat="59.45459048" lon="30.22334696">
        <ele>83.19</ele>
        <time>2026-08-29T21:33:25Z</time>
      </trkpt>
      <trkpt lat="59.4546282" lon="30.22350784">
        <ele>84.84</ele>
        <time>2026-08-29T21:33:36Z</time>
      </trkpt>
      <trkpt lat="59.45468668" lon="30.22365259">
        <ele>86.31</ele>
        <time>2026-08-29T21:33:53Z</time>
      </trkpt>
      <trkpt lat="59.45477743" lon="30.22366897">
        <ele>88.48</ele>
        <time>2026-08-29T21:34:52Z</time>
      </trkpt>
      <trkpt lat="59.45486649" lon="30.2236386">
        <ele>87.43</ele>
        <time>2026-08-29T21:35:07Z</time>
      </trkpt>
      <trkpt lat="59.45495846" lon="30.2236824">
        <ele>92.11</ele>
        <time>2026-08-29T21:35:48Z</time>
      </trkpt>
      <trkpt lat="59.45504918" lon="30.22369136">
        <ele>94.94</ele>
        <time>2026-08-29T21:36:02Z</time>
      </trkpt>
      <trkpt lat="59.45514449" lon="30.22371478">
        <ele>99.66</ele>
        <time>2026-08-29T21:36:15Z</time>
      </trkpt>
      <trkpt lat="59.45507328" lon="30.22382503">
        <ele>92.79</ele>
        <time>2026-08-29T21:37:42Z</time>
      </trkpt>
      <trkpt lat="59.45506689" lon="30.22400171">
        <ele>88.85</ele>
        <time>2026-08-29T21:37:56Z</time>
      </trkpt>
      <trkpt lat="59.45514725" lon="30.22410129">
        <ele>89.5</ele>
        <time>2026-08-29T21:38:15Z</time>
      </trkpt>
      <trkpt lat="59.45515856" lon="30.22427751">
        <ele>88</ele>
        <time>2026-08-29T21:38:32Z</time>
      </trkpt>
      <trkpt lat="59.45516213" lon="30.22445386">
        <ele>86.72</ele>
        <time>2026-08-29T21:38:47Z</time>
      </trkpt>
      <trkpt lat="59.45510277" lon="30.2245898">
        <ele>86.62</ele>
        <time>2026-08-29T21:39:27Z</time>
      </trkpt>
      <trkpt lat="59.45501311" lon="30.22462349">
        <ele>86.41</ele>
        <time>2026-08-29T21:39:48Z</time>
      </trkpt>
      <trkpt lat="59.45501061" lon="30.22480904">
        <ele>90.24</ele>
        <time>2026-08-29T21:40:20Z</time>
      </trkpt>
      <trkpt lat="59.45502055" lon="30.22500647">
        <ele>94.05</ele>
        <time>2026-08-29T21:40:39Z</time>
      </trkpt>
      <trkpt lat="59.45504622" lon="30.22518223">
        <ele>89.39</ele>
        <time>2026-08-29T21:40:48Z</time>
      </trkpt>
      <trkpt lat="59.45484598" lon="30.22495228">
        <ele>86.86</ele>
        <time>2026-08-29T21:40:55Z</time>
      </trkpt>
      <trkpt lat="59.454778" lon="30.2250845">
        <ele>86.18</ele>
        <time>2026-08-29T21:41:10Z</time>
      </trkpt>
      <trkpt lat="59.45471897" lon="30.22522289">
        <ele>86.62</ele>
        <time>2026-08-29T21:41:27Z</time>
      </trkpt>
      <trkpt lat="59.45475038" lon="30.22539451">
        <ele>86.39</ele>
        <time>2026-08-29T21:41:41Z</time>
      </trkpt>
      <trkpt lat="59.45475773" lon="30.22558233">
        <ele>85.17</ele>
        <time>2026-08-29T21:41:54Z</time>
      </trkpt>
      <trkpt lat="59.45473967" lon="30.22576807">
        <ele>86.01</ele>
        <time>2026-08-29T21:42:08Z</time>
      </trkpt>
      <trkpt lat="59.45469014" lon="30.22591689">
        <ele>86.44</ele>
        <time>2026-08-29T21:42:20Z</time>
      </trkpt>
      <trkpt lat="59.45464864" lon="30.22607847">
        <ele>87.41</ele>
        <time>2026-08-29T21:42:38Z</time>
      </trkpt>
      <trkpt lat="59.45464029" lon="30.22626921">
        <ele>87.74</ele>
        <time>2026-08-29T21:42:53Z</time>
      </trkpt>
      <trkpt lat="59.45464106" lon="30.22644835">
        <ele>88.04</ele>
        <time>2026-08-29T21:43:20Z</time>
      </trkpt>
      <trkpt lat="59.4546072" lon="30.22663275">
        <ele>87.91</ele>
        <time>2026-08-29T21:44:27Z</time>
      </trkpt>
      <trkpt lat="59.45461577" lon="30.22682157">
        <ele>87.74</ele>
        <time>2026-08-29T21:44:36Z</time>
      </trkpt>
      <trkpt lat="59.45460984" lon="30.22700149">
        <ele>88.09</ele>
        <time>2026-08-29T21:44:44Z</time>
      </trkpt>
      <trkpt lat="59.45455005" lon="30.2271583">
        <ele>86.35</ele>
        <time>2026-08-29T21:44:57Z</time>
      </trkpt>
      <trkpt lat="59.45453062" lon="30.22733869">
        <ele>84.99</ele>
        <time>2026-08-29T21:45:03Z</time>
      </trkpt>
      <trkpt lat="59.45458964" lon="30.22748318">
        <ele>85.09</ele>
        <time>2026-08-29T21:45:18Z</time>
      </trkpt>
      <trkpt lat="59.45461923" lon="30.22767565">
        <ele>85.24</ele>
        <time>2026-08-29T21:45:30Z</time>
      </trkpt>
      <trkpt lat="59.4546346" lon="30.22785007">
        <ele>87.01</ele>
        <time>2026-08-29T21:45:36Z</time>
      </trkpt>
      <trkpt lat="59.45466917" lon="30.22801763">
        <ele>88.22</ele>
        <time>2026-08-29T21:45:50Z</time>
      </trkpt>
      <trkpt lat="59.45469001" lon="30.22819577">
        <ele>89.34</ele>
        <time>2026-08-29T21:46:05Z</time>
      </trkpt>
      <trkpt lat="59.45468731" lon="30.22838079">
        <ele>88.37</ele>
        <time>2026-08-29T21:46:16Z</time>
      </trkpt>
      <trkpt lat="59.45469803" lon="30.22857607">
        <ele>86.71</ele>
        <time>2026-08-29T21:46:30Z</time>
      </trkpt>
      <trkpt lat="59.45473463" lon="30.22865741">
        <ele>87.84</ele>
        <time>2026-08-29T21:48:31Z</time>
      </trkpt>
      <trkpt lat="59.45483331" lon="30.22865347">
        <ele>89.61</ele>
        <time>2026-08-29T21:48:48Z</time>
      </trkpt>
      <trkpt lat="59.4549268" lon="30.22862026">
        <ele>87.05</ele>
        <time>2026-08-29T21:48:58Z</time>
      </trkpt>
      <trkpt lat="59.45502336" lon="30.22858767">
        <ele>84.9</ele>
        <time>2026-08-29T21:49:08Z</time>
      </trkpt>
      <trkpt lat="59.45511727" lon="30.22855661">
        <ele>83.41</ele>
        <time>2026-08-29T21:49:18Z</time>
      </trkpt>
      <trkpt lat="59.45521222" lon="30.22851983">
        <ele>82.72</ele>
        <time>2026-08-29T21:49:30Z</time>
      </trkpt>
      <trkpt lat="59.45530386" lon="30.22848112">
        <ele>82.66</ele>
        <time>2026-08-29T21:49:39Z</time>
      </trkpt>
      <trkpt lat="59.45540271" lon="30.22844702">
        <ele>86.12</ele>
        <time>2026-08-29T21:49:46Z</time>
      </trkpt>
      <trkpt lat="59.45549897" lon="30.2284269">
        <ele>86.28</ele>
        <time>2026-08-29T21:49:58Z</time>
      </trkpt>
      <trkpt lat="59.45560359" lon="30.228414">
        <ele>88.04</ele>
        <time>2026-08-29T21:50:05Z</time>
      </trkpt>
      <trkpt lat="59.45570055" lon="30.22843054">
        <ele>87.47</ele>
        <time>2026-08-29T21:50:15Z</time>
      </trkpt>
      <trkpt lat="59.45579963" lon="30.22843898">
        <ele>87.25</ele>
        <time>2026-08-29T21:50:25Z</time>
      </trkpt>
      <trkpt lat="59.45588469" lon="30.22851691">
        <ele>86.24</ele>
        <time>2026-08-29T21:50:40Z</time>
      </trkpt>
      <trkpt lat="59.45578204" lon="30.22851512">
        <ele>85.44</ele>
        <time>2026-08-29T21:51:27Z</time>
      </trkpt>
      <trkpt lat="59.4556851" lon="30.2284932">
        <ele>85.38</ele>
        <time>2026-08-29T21:51:35Z</time>
      </trkpt>
      <trkpt lat="59.45559163" lon="30.228479">
        <ele>84.85</ele>
        <time>2026-08-29T21:51:44Z</time>
      </trkpt>
      <trkpt lat="59.45549969" lon="30.22846491">
        <ele>83.57</ele>
        <time>2026-08-29T21:51:53Z</time>
      </trkpt>
      <trkpt lat="59.45541417" lon="30.22853326">
        <ele>83.33</ele>
        <time>2026-08-29T21:52:03Z</time>
      </trkpt>
      <trkpt lat="59.45532355" lon="30.22852784">
        <ele>82.7</ele>
        <time>2026-08-29T21:52:14Z</time>
      </trkpt>
      <trkpt lat="59.4552265" lon="30.22858246">
        <ele>84.51</ele>
        <time>2026-08-29T21:52:23Z</time>
      </trkpt>
      <trkpt lat="59.45512676" lon="30.22861661">
        <ele>85.64</ele>
        <time>2026-08-29T21:52:32Z</time>
      </trkpt>
      <trkpt lat="59.45502781" lon="30.22866309">
        <ele>86.57</ele>
        <time>2026-08-29T21:52:41Z</time>
      </trkpt>
      <trkpt lat="59.45493889" lon="30.22869203">
        <ele>87.14</ele>
        <time>2026-08-29T21:52:48Z</time>
      </trkpt>
      <trkpt lat="59.4548453" lon="30.22867537">
        <ele>84.95</ele>
        <time>2026-08-29T21:52:58Z</time>
      </trkpt>
      <trkpt lat="59.45474972" lon="30.22867546">
        <ele>87.3</ele>
        <time>2026-08-29T21:53:09Z</time>
      </trkpt>
      <trkpt lat="59.45465185" lon="30.22867647">
        <ele>86.71</ele>
        <time>2026-08-29T21:53:40Z</time>
      </trkpt>
      <trkpt lat="59.45456038" lon="30.22867044">
        <ele>85</ele>
        <time>2026-08-29T21:53:53Z</time>
      </trkpt>
      <trkpt lat="59.45445409" lon="30.22869845">
        <ele>86.32</ele>
        <time>2026-08-29T21:54:03Z</time>
      </trkpt>
      <trkpt lat="59.45436035" lon="30.22872515">
        <ele>87.36</ele>
        <time>2026-08-29T21:54:13Z</time>
      </trkpt>
      <trkpt lat="59.45426504" lon="30.22873375">
        <ele>85.3</ele>
        <time>2026-08-29T21:54:24Z</time>
      </trkpt>
      <trkpt lat="59.45416845" lon="30.22872985">
        <ele>85.64</ele>
        <time>2026-08-29T21:54:34Z</time>
      </trkpt>
      <trkpt lat="59.45408012" lon="30.22876817">
        <ele>85.55</ele>
        <time>2026-08-29T21:54:42Z</time>
      </trkpt>
      <trkpt lat="59.45398527" lon="30.22880643">
        <ele>84.53</ele>
        <time>2026-08-29T21:54:51Z</time>
      </trkpt>
      <trkpt lat="59.45388838" lon="30.22881656">
        <ele>86.75</ele>
        <time>2026-08-29T21:55:00Z</time>
      </trkpt>
      <trkpt lat="59.45379365" lon="30.22882463">
        <ele>85.76</ele>
        <time>2026-08-29T21:55:09Z</time>
      </trkpt>
      <trkpt lat="59.45370552" lon="30.22887133">
        <ele>85.41</ele>
        <time>2026-08-29T21:55:17Z</time>
      </trkpt>
      <trkpt lat="59.45360645" lon="30.22888618">
        <ele>85.37</ele>
        <time>2026-08-29T21:55:26Z</time>
      </trkpt>
      <trkpt lat="59.45351229" lon="30.22891372">
        <ele>85.44</ele>
        <time>2026-08-29T21:55:34Z</time>
      </trkpt>
      <trkpt lat="59.45342133" lon="30.22892601">
        <ele>86.62</ele>
        <time>2026-08-29T21:55:43Z</time>
      </trkpt>
      <trkpt lat="59.45332375" lon="30.22894326">
        <ele>86.97</ele>
        <time>2026-08-29T21:55:53Z</time>
      </trkpt>
      <trkpt lat="59.45322554" lon="30.2289659">
        <ele>87.77</ele>
        <time>2026-08-29T21:56:03Z</time>
      </trkpt>
      <trkpt lat="59.45312957" lon="30.22895603">
        <ele>87.6</ele>
        <time>2026-08-29T21:56:12Z</time>
      </trkpt>
      <trkpt lat="59.45303616" lon="30.2289664">
        <ele>88.37</ele>
        <time>2026-08-29T21:56:21Z</time>
      </trkpt>
      <trkpt lat="59.45294304" lon="30.2289631">
        <ele>88.82</ele>
        <time>2026-08-29T21:56:30Z</time>
      </trkpt>
      <trkpt lat="59.45290286" lon="30.22912188">
        <ele>89.76</ele>
        <time>2026-08-29T21:58:14Z</time>
      </trkpt>
      <trkpt lat="59.45291641" lon="30.22929706">
        <ele>89.52</ele>
        <time>2026-08-29T21:58:27Z</time>
      </trkpt>
      <trkpt lat="59.45292059" lon="30.22948563">
        <ele>90.35</ele>
        <time>2026-08-29T21:58:39Z</time>
      </trkpt>
      <trkpt lat="59.45289888" lon="30.22966392">
        <ele>90.83</ele>
        <time>2026-08-29T21:58:51Z</time>
      </trkpt>
      <trkpt lat="59.45287906" lon="30.22984669">
        <ele>92.31</ele>
        <time>2026-08-29T21:59:02Z</time>
      </trkpt>
      <trkpt lat="59.45292419" lon="30.23000531">
        <ele>93.85</ele>
        <time>2026-08-29T21:59:13Z</time>
      </trkpt>
      <trkpt lat="59.45295164" lon="30.23017671">
        <ele>93.48</ele>
        <time>2026-08-29T21:59:23Z</time>
      </trkpt>
      <trkpt lat="59.45298323" lon="30.23035466">
        <ele>93.17</ele>
        <time>2026-08-29T21:59:35Z</time>
      </trkpt>
      <trkpt lat="59.45302381" lon="30.23052648">
        <ele>92.91</ele>
        <time>2026-08-29T22:00:49Z</time>
      </trkpt>
      <trkpt lat="59.45301547" lon="30.23071085">
        <ele>91.77</ele>
        <time>2026-08-29T22:01:01Z</time>
      </trkpt>
      <trkpt lat="59.45300354" lon="30.23088622">
        <ele>93.31</ele>
        <time>2026-08-29T22:01:11Z</time>
      </trkpt>
      <trkpt lat="59.45302378" lon="30.23105979">
        <ele>94.85</ele>
        <time>2026-08-29T22:01:23Z</time>
      </trkpt>
      <trkpt lat="59.45302228" lon="30.2312401">
        <ele>93.99</ele>
        <time>2026-08-29T22:01:35Z</time>
      </trkpt>
      <trkpt lat="59.45300867" lon="30.23143232">
        <ele>93.63</ele>
        <time>2026-08-29T22:01:46Z</time>
      </trkpt>
      <trkpt lat="59.45300891" lon="30.23161468">
        <ele>91.79</ele>
        <time>2026-08-29T22:01:58Z</time>
      </trkpt>
      <trkpt lat="59.45304212" lon="30.23179317">
        <ele>90.59</ele>
        <time>2026-08-29T22:02:13Z</time>
      </trkpt>
      <trkpt lat="59.45305897" lon="30.23197102">
        <ele>91.84</ele>
        <time>2026-08-29T22:02:22Z</time>
      </trkpt>
      <trkpt lat="59.45308246" lon="30.23215747">
        <ele>91.72</ele>
        <time>2026-08-29T22:02:31Z</time>
      </trkpt>
      <trkpt lat="59.45307648" lon="30.23234291">
        <ele>88.81</ele>
        <time>2026-08-29T22:02:44Z</time>
      </trkpt>
      <trkpt lat="59.45308798" lon="30.23252083">
        <ele>88.86</ele>
        <time>2026-08-29T22:02:56Z</time>
      </trkpt>
      <trkpt lat="59.45310915" lon="30.23269625">
        <ele>89.04</ele>
        <time>2026-08-29T22:03:08Z</time>
      </trkpt>
      <trkpt lat="59.45305417" lon="30.23285133">
        <ele>88.79</ele>
        <time>2026-08-29T22:03:18Z</time>
      </trkpt>
      <trkpt lat="59.45304929" lon="30.23304308">
        <ele>85.98</ele>
        <time>2026-08-29T22:03:29Z</time>
      </trkpt>
      <trkpt lat="59.4530221" lon="30.23322648">
        <ele>87.3</ele>
        <time>2026-08-29T22:03:35Z</time>
      </trkpt>
      <trkpt lat="59.453104" lon="30.23331448">
        <ele>90.38</ele>
        <time>2026-08-29T22:04:28Z</time>
      </trkpt>
      <trkpt lat="59.45309217" lon="30.23350282">
        <ele>88.85</ele>
        <time>2026-08-29T22:04:41Z</time>
      </trkpt>
      <trkpt lat="59.45307515" lon="30.23368479">
        <ele>85.24</ele>
        <time>2026-08-29T22:04:55Z</time>
      </trkpt>
      <trkpt lat="59.45308126" lon="30.23386578">
        <ele>83.5</ele>
        <time>2026-08-29T22:05:04Z</time>
      </trkpt>
      <trkpt lat="59.45312125" lon="30.23404395">
        <ele>83.36</ele>
        <time>2026-08-29T22:05:17Z</time>
      </trkpt>
      <trkpt lat="59.4531546" lon="30.23421662">
        <ele>90.64</ele>
        <time>2026-08-29T22:05:27Z</time>
      </trkpt>
      <trkpt lat="59.45314148" lon="30.23439272">
        <ele>91.9</ele>
        <time>2026-08-29T22:05:36Z</time>
      </trkpt>
      <trkpt lat="59.4531003" lon="30.2345689">
        <ele>93.29</ele>
        <time>2026-08-29T22:05:48Z</time>
      </trkpt>
      <trkpt lat="59.45306764" lon="30.23473702">
        <ele>91.04</ele>
        <time>2026-08-29T22:05:56Z</time>
      </trkpt>
      <trkpt lat="59.45306884" lon="30.23491893">
        <ele>91.18</ele>
        <time>2026-08-29T22:06:09Z</time>
      </trkpt>
      <trkpt lat="59.45311055" lon="30.23509186">
        <ele>93.31</ele>
        <time>2026-08-29T22:06:19Z</time>
      </trkpt>
      <trkpt lat="59.45309766" lon="30.23527891">
        <ele>93.12</ele>
        <time>2026-08-29T22:06:50Z</time>
      </trkpt>
      <trkpt lat="59.45309036" lon="30.23546522">
        <ele>92.5</ele>
        <time>2026-08-29T22:06:59Z</time>
      </trkpt>
      <trkpt lat="59.45313474" lon="30.23563009">
        <ele>93.18</ele>
        <time>2026-08-29T22:07:13Z</time>
      </trkpt>
      <trkpt lat="59.45321492" lon="30.23573163">
        <ele>95.99</ele>
        <time>2026-08-29T22:07:24Z</time>
      </trkpt>
      <trkpt lat="59.45319564" lon="30.23592146">
        <ele>89.71</ele>
        <time>2026-08-29T22:07:35Z</time>
      </trkpt>
      <trkpt lat="59.45314982" lon="30.23607557">
        <ele>87.39</ele>
        <time>2026-08-29T22:07:42Z</time>
      </trkpt>
      <trkpt lat="59.45318368" lon="30.23624383">
        <ele>88.18</ele>
        <time>2026-08-29T22:07:53Z</time>
      </trkpt>
      <trkpt lat="59.45318067" lon="30.23642131">
        <ele>90.43</ele>
        <time>2026-08-29T22:08:07Z</time>
      </trkpt>
      <trkpt lat="59.45315018" lon="30.23659094">
        <ele>91.07</ele>
        <time>2026-08-29T22:08:21Z</time>
      </trkpt>
      <trkpt lat="59.45317512" lon="30.23677395">
        <ele>91.22</ele>
        <time>2026-08-29T22:08:33Z</time>
      </trkpt>
      <trkpt lat="59.45320404" lon="30.23695539">
        <ele>89.57</ele>
        <time>2026-08-29T22:08:55Z</time>
      </trkpt>
      <trkpt lat="59.45314564" lon="30.23710097">
        <ele>87.79</ele>
        <time>2026-08-29T22:09:05Z</time>
      </trkpt>
      <trkpt lat="59.45322741" lon="30.23719611">
        <ele>89.76</ele>
        <time>2026-08-29T22:09:18Z</time>
      </trkpt>
      <trkpt lat="59.45320178" lon="30.23737389">
        <ele>89.93</ele>
        <time>2026-08-29T22:09:26Z</time>
      </trkpt>
      <trkpt lat="59.45322346" lon="30.23756049">
        <ele>89.04</ele>
        <time>2026-08-29T22:09:36Z</time>
      </trkpt>
      <trkpt lat="59.45326961" lon="30.23773858">
        <ele>93.48</ele>
        <time>2026-08-29T22:09:43Z</time>
      </trkpt>
      <trkpt lat="59.45330278" lon="30.23790549">
        <ele>98.21</ele>
        <time>2026-08-29T22:09:49Z</time>
      </trkpt>
      <trkpt lat="59.4532352" lon="30.23803478">
        <ele>100.32</ele>
        <time>2026-08-29T22:09:57Z</time>
      </trkpt>
      <trkpt lat="59.45319773" lon="30.23819939">
        <ele>100.94</ele>
        <time>2026-08-29T22:10:10Z</time>
      </trkpt>
      <trkpt lat="59.45325874" lon="30.23835043">
        <ele>97.84</ele>
        <time>2026-08-29T22:10:25Z</time>
      </trkpt>
      <trkpt lat="59.45326579" lon="30.23853333">
        <ele>95.91</ele>
        <time>2026-08-29T22:10:42Z</time>
      </trkpt>
      <trkpt lat="59.4532632" lon="30.23871782">
        <ele>92.77</ele>
        <time>2026-08-29T22:11:40Z</time>
      </trkpt>
      <trkpt lat="59.45324139" lon="30.23889197">
        <ele>89.42</ele>
        <time>2026-08-29T22:11:52Z</time>
      </trkpt>
      <trkpt lat="59.45328999" lon="30.2390547">
        <ele>88.65</ele>
        <time>2026-08-29T22:12:04Z</time>
      </trkpt>
      <trkpt lat="59.45330764" lon="30.23923283">
        <ele>88.62</ele>
        <time>2026-08-29T22:12:13Z</time>
      </trkpt>
      <trkpt lat="59.45329967" lon="30.23941411">
        <ele>84.36</ele>
        <time>2026-08-29T22:12:26Z</time>
      </trkpt>
      <trkpt lat="59.45329274" lon="30.23959191">
        <ele>92.38</ele>
        <time>2026-08-29T22:12:49Z</time>
      </trkpt>
      <trkpt lat="59.45330314" lon="30.23977918">
        <ele>88.45</ele>
        <time>2026-08-29T22:13:06Z</time>
      </trkpt>
      <trkpt lat="59.45334428" lon="30.23995283">
        <ele>88.41</ele>
        <time>2026-08-29T22:13:15Z</time>
      </trkpt>
      <trkpt lat="59.4533345" lon="30.24013309">
        <ele>88.74</ele>
        <time>2026-08-29T22:13:26Z</time>
      </trkpt>
      <trkpt lat="59.45333135" lon="30.24031791">
        <ele>86.13</ele>
        <time>2026-08-29T22:13:42Z</time>
      </trkpt>
      <trkpt lat="59.45333843" lon="30.24051309">
        <ele>86.92</ele>
        <time>2026-08-29T22:13:52Z</time>
      </trkpt>
      <trkpt lat="59.45335098" lon="30.24068955">
        <ele>88.64</ele>
        <time>2026-08-29T22:13:59Z</time>
      </trkpt>
      <trkpt lat="59.45338678" lon="30.24085641">
        <ele>91.4</ele>
        <time>2026-08-29T22:14:12Z</time>
      </trkpt>
      <trkpt lat="59.4533314" lon="30.24100329">
        <ele>91.8</ele>
        <time>2026-08-29T22:14:45Z</time>
      </trkpt>
      <trkpt lat="59.45334579" lon="30.24118304">
        <ele>94.62</ele>
        <time>2026-08-29T22:15:09Z</time>
      </trkpt>
      <trkpt lat="59.45334575" lon="30.24135943">
        <ele>91.21</ele>
        <time>2026-08-29T22:15:20Z</time>
      </trkpt>
      <trkpt lat="59.45334158" lon="30.24153641">
        <ele>91.18</ele>
        <time>2026-08-29T22:15:34Z</time>
      </trkpt>
      <trkpt lat="59.45337217" lon="30.24170421">
        <ele>91.13</ele>
        <time>2026-08-29T22:15:50Z</time>
      </trkpt>
      <trkpt lat="59.45340821" lon="30.24187098">
        <ele>91.9</ele>
        <time>2026-08-29T22:16:00Z</time>
      </trkpt>
      <trkpt lat="59.45342124" lon="30.24205891">
        <ele>89.35</ele>
        <time>2026-08-29T22:16:15Z</time>
      </trkpt>
      <trkpt lat="59.4533722" lon="30.24222001">
        <ele>86.84</ele>
        <time>2026-08-29T22:16:25Z</time>
      </trkpt>
      <trkpt lat="59.45339285" lon="30.24240722">
        <ele>85.17</ele>
        <time>2026-08-29T22:16:42Z</time>
      </trkpt>
      <trkpt lat="59.45340091" lon="30.2425842">
        <ele>85.73</ele>
        <time>2026-08-29T22:16:57Z</time>
      </trkpt>
      <trkpt lat="59.45342842" lon="30.24275995">
        <ele>87.46</ele>
        <time>2026-08-29T22:17:11Z</time>
      </trkpt>
      <trkpt lat="59.45342725" lon="30.24294121">
        <ele>88.26</ele>
        <time>2026-08-29T22:17:23Z</time>
      </trkpt>
      <trkpt lat="59.45339284" lon="30.24310448">
        <ele>88.96</ele>
        <time>2026-08-29T22:17:31Z</time>
      </trkpt>
      <trkpt lat="59.45339817" lon="30.24328975">
        <ele>95.04</ele>
        <time>2026-08-29T22:17:42Z</time>
      </trkpt>
      <trkpt lat="59.45339178" lon="30.24347938">
        <ele>92.61</ele>
        <time>2026-08-29T22:17:55Z</time>
      </trkpt>
      <trkpt lat="59.45343027" lon="30.24365294">
        <ele>90.53</ele>
        <time>2026-08-29T22:18:07Z</time>
      </trkpt>
      <trkpt lat="59.45342335" lon="30.24383629">
        <ele>93.1</ele>
        <time>2026-08-29T22:18:15Z</time>
      </trkpt>
      <trkpt lat="59.45346624" lon="30.24400823">
        <ele>94.21</ele>
        <time>2026-08-29T22:18:25Z</time>
      </trkpt>
      <trkpt lat="59.45343683" lon="30.24419678">
        <ele>91.92</ele>
        <time>2026-08-29T22:18:37Z</time>
      </trkpt>
      <trkpt lat="59.45346806" lon="30.24431582">
        <ele>88.4</ele>
        <time>2026-08-29T22:20:38Z</time>
      </trkpt>
      <trkpt lat="59.45350512" lon="30.24449572">
        <ele>89.05</ele>
        <time>2026-08-29T22:21:34Z</time>
      </trkpt>
      <trkpt lat="59.45350136" lon="30.24467716">
        <ele>91.26</ele>
        <time>2026-08-29T22:21:43Z</time>
      </trkpt>
      <trkpt lat="59.45345405" lon="30.24482972">
        <ele>91.93</ele>
        <time>2026-08-29T22:21:55Z</time>
      </trkpt>
      <trkpt lat="59.45349556" lon="30.24499931">
        <ele>91.88</ele>
        <time>2026-08-29T22:22:11Z</time>
      </trkpt>
      <trkpt lat="59.45348395" lon="30.24518329">
        <ele>92.81</ele>
        <time>2026-08-29T22:22:19Z</time>
      </trkpt>
      <trkpt lat="59.45348617" lon="30.24536845">
        <ele>95.6</ele>
        <time>2026-08-29T22:22:33Z</time>
      </trkpt>
      <trkpt lat="59.45350137" lon="30.24555225">
        <ele>93.17</ele>
        <time>2026-08-29T22:22:46Z</time>
      </trkpt>
      <trkpt lat="59.45350271" lon="30.24573949">
        <ele>90.58</ele>
        <time>2026-08-29T22:23:00Z</time>
      </trkpt>
      <trkpt lat="59.45351884" lon="30.24592291">
        <ele>92.9</ele>
        <time>2026-08-29T22:23:10Z</time>
      </trkpt>
      <trkpt lat="59.45353045" lon="30.24610869">
        <ele>92.01</ele>
        <time>2026-08-29T22:23:24Z</time>
      </trkpt>
      <trkpt lat="59.45353815" lon="30.24629247">
        <ele>95.43</ele>
        <time>2026-08-29T22:23:38Z</time>
      </trkpt>
      <trkpt lat="59.45351636" lon="30.24647704">
        <ele>92.35</ele>
        <time>2026-08-29T22:23:47Z</time>
      </trkpt>
      <trkpt lat="59.45348346" lon="30.24664832">
        <ele>89.05</ele>
        <time>2026-08-29T22:23:59Z</time>
      </trkpt>
      <trkpt lat="59.45353832" lon="30.2467915">
        <ele>90.13</ele>
        <time>2026-08-29T22:24:12Z</time>
      </trkpt>
      <trkpt lat="59.45353819" lon="30.24697572">
        <ele>89.33</ele>
        <time>2026-08-29T22:24:23Z</time>
      </trkpt>
      <trkpt lat="59.45354185" lon="30.24716598">
        <ele>91.91</ele>
        <time>2026-08-29T22:24:35Z</time>
      </trkpt>
      <trkpt lat="59.45353671" lon="30.24734301">
        <ele>91.61</ele>
        <time>2026-08-29T22:24:44Z</time>
      </trkpt>
      <trkpt lat="59.45355815" lon="30.24752315">
        <ele>90.93</ele>
        <time>2026-08-29T22:24:51Z</time>
      </trkpt>
      <trkpt lat="59.45354399" lon="30.24769953">
        <ele>89.62</ele>
        <time>2026-08-29T22:25:02Z</time>
      </trkpt>
      <trkpt lat="59.45352865" lon="30.24773486">
        <ele>91.09</ele>
        <time>2026-08-29T22:27:03Z</time>
      </trkpt>
      <trkpt lat="59.45343308" lon="30.24778934">
        <ele>90.51</ele>
        <time>2026-08-29T22:27:24Z</time>
      </trkpt>
      <trkpt lat="59.45334073" lon="30.24774783">
        <ele>87.41</ele>
        <time>2026-08-29T22:27:36Z</time>
      </trkpt>
      <trkpt lat="59.45324243" lon="30.24776137">
        <ele>89.29</ele>
        <time>2026-08-29T22:27:47Z</time>
      </trkpt>
      <trkpt lat="59.45316326" lon="30.24767306">
        <ele>91.8</ele>
        <time>2026-08-29T22:27:57Z</time>
      </trkpt>
      <trkpt lat="59.45306404" lon="30.24764037">
        <ele>92.4</ele>
        <time>2026-08-29T22:28:06Z</time>
      </trkpt>
      <trkpt lat="59.45296701" lon="30.24759273">
        <ele>90.25</ele>
        <time>2026-08-29T22:28:16Z</time>
      </trkpt>
      <trkpt lat="59.45287408" lon="30.24753213">
        <ele>90.27</ele>
        <time>2026-08-29T22:28:26Z</time>
      </trkpt>
      <trkpt lat="59.45278301" lon="30.24747444">
        <ele>89.61</ele>
        <time>2026-08-29T22:28:35Z</time>
      </trkpt>
      <trkpt lat="59.45268883" lon="30.2474858">
        <ele>91.24</ele>
        <time>2026-08-29T22:28:44Z</time>
      </trkpt>
      <trkpt lat="59.45259033" lon="30.24753138">
        <ele>92.35</ele>
        <time>2026-08-29T22:28:52Z</time>
      </trkpt>
      <trkpt lat="59.45249694" lon="30.24754561">
        <ele>94.06</ele>
        <time>2026-08-29T22:29:01Z</time>
      </trkpt>
      <trkpt lat="59.45240479" lon="30.24751539">
        <ele>91.6</ele>
        <time>2026-08-29T22:30:20Z</time>
      </trkpt>
      <trkpt lat="59.45231275" lon="30.24759037">
        <ele>91.27</ele>
        <time>2026-08-29T22:30:31Z</time>
      </trkpt>
      <trkpt lat="59.45223739" lon="30.24770877">
        <ele>89.58</ele>
        <time>2026-08-29T22:30:38Z</time>
      </trkpt>
      <trkpt lat="59.4521728" lon="30.24785735">
        <ele>91.39</ele>
        <time>2026-08-29T22:30:47Z</time>
      </trkpt>
      <trkpt lat="59.45209583" lon="30.24797015">
        <ele>89.54</ele>
        <time>2026-08-29T22:30:56Z</time>
      </trkpt>
      <trkpt lat="59.45199902" lon="30.24796124">
        <ele>90.6</ele>
        <time>2026-08-29T22:31:05Z</time>
      </trkpt>
      <trkpt lat="59.45191986" lon="30.24783881">
        <ele>92.76</ele>
        <time>2026-08-29T22:31:15Z</time>
      </trkpt>
      <trkpt lat="59.4518295" lon="30.24787513">
        <ele>91.29</ele>
        <time>2026-08-29T22:31:25Z</time>
      </trkpt>
      <trkpt lat="59.45173589" lon="30.24791628">
        <ele>90.31</ele>
        <time>2026-08-29T22:31:34Z</time>
      </trkpt>
      <trkpt lat="59.45164751" lon="30.24799389">
        <ele>92.34</ele>
        <time>2026-08-29T22:31:47Z</time>
      </trkpt>
      <trkpt lat="59.45157537" lon="30.24787615">
        <ele>91.5</ele>
        <time>2026-08-29T22:31:59Z</time>
      </trkpt>
      <trkpt lat="59.45157676" lon="30.24768789">
        <ele>91.48</ele>
        <time>2026-08-29T22:32:57Z</time>
      </trkpt>
      <trkpt lat="59.45157136" lon="30.24750243">
        <ele>91.44</ele>
        <time>2026-08-29T22:33:07Z</time>
      </trkpt>
      <trkpt lat="59.4515677" lon="30.24732397">
        <ele>89.87</ele>
        <time>2026-08-29T22:33:17Z</time>
      </trkpt>
      <trkpt lat="59.45153619" lon="30.2471538">
        <ele>92.03</ele>
        <time>2026-08-29T22:33:27Z</time>
      </trkpt>
      <trkpt lat="59.45154825" lon="30.2469731">
        <ele>93.6</ele>
        <time>2026-08-29T22:33:37Z</time>
      </trkpt>
      <trkpt lat="59.4515207" lon="30.24679235">
        <ele>97.61</ele>
        <time>2026-08-29T22:33:47Z</time>
      </trkpt>
      <trkpt lat="59.45149214" lon="30.24661808">
        <ele>94.66</ele>
        <time>2026-08-29T22:33:58Z</time>
      </trkpt>
      <trkpt lat="59.45149891" lon="30.24642367">
        <ele>97.5</ele>
        <time>2026-08-29T22:34:12Z</time>
      </trkpt>
      <trkpt lat="59.45145734" lon="30.24626056">
        <ele>95.45</ele>
        <time>2026-08-29T22:34:26Z</time>
      </trkpt>
      <trkpt lat="59.45143191" lon="30.24608695">
        <ele>96.02</ele>
        <time>2026-08-29T22:34:50Z</time>
      </trkpt>
      <trkpt lat="59.45149856" lon="30.2459516">
        <ele>93.96</ele>
        <time>2026-08-29T22:35:05Z</time>
      </trkpt>
      <trkpt lat="59.4515058" lon="30.24575998">
        <ele>92.68</ele>
        <time>2026-08-29T22:35:19Z</time>
      </trkpt>
      <trkpt lat="59.45152172" lon="30.2455663">
        <ele>91.47</ele>
        <time>2026-08-29T22:35:31Z</time>
      </trkpt>
      <trkpt lat="59.45150475" lon="30.24538796">
        <ele>95.07</ele>
        <time>2026-08-29T22:35:39Z</time>
      </trkpt>
      <trkpt lat="59.4514571" lon="30.24521148">
        <ele>97.09</ele>
        <time>2026-08-29T22:35:52Z</time>
      </trkpt>
      <trkpt lat="59.45145544" lon="30.24502678">
        <ele>96.39</ele>
        <time>2026-08-29T22:36:09Z</time>
      </trkpt>
      <trkpt lat="59.45141505" lon="30.24484952">
        <ele>95.7</ele>
        <time>2026-08-29T22:36:23Z</time>
      </trkpt>
      <trkpt lat="59.45140873" lon="30.24465777">
        <ele>97.37</ele>
        <time>2026-08-29T22:36:34Z</time>
      </trkpt>
      <trkpt lat="59.45140512" lon="30.24447531">
        <ele>98.48</ele>
        <time>2026-08-29T22:36:43Z</time>
      </trkpt>
      <trkpt lat="59.45141771" lon="30.24427458">
        <ele>96.81</ele>
        <time>2026-08-29T22:36:57Z</time>
      </trkpt>
      <trkpt lat="59.45142951" lon="30.24409755">
        <ele>96.27</ele>
        <time>2026-08-29T22:37:11Z</time>
      </trkpt>
      <trkpt lat="59.45139168" lon="30.24393172">
        <ele>93.57</ele>
        <time>2026-08-29T22:37:30Z</time>
      </trkpt>
      <trkpt lat="59.45141241" lon="30.2437597">
        <ele>94.12</ele>
        <time>2026-08-29T22:37:48Z</time>
      </trkpt>
      <trkpt lat="59.45143641" lon="30.24358231">
        <ele>88.12</ele>
        <time>2026-08-29T22:38:08Z</time>
      </trkpt>
      <trkpt lat="59.45141952" lon="30.24340037">
        <ele>91.36</ele>
        <time>2026-08-29T22:38:26Z</time>
      </trkpt>
      <trkpt lat="59.45136409" lon="30.24325584">
        <ele>91.47</ele>
        <time>2026-08-29T22:39:44Z</time>
      </trkpt>
      <trkpt lat="59.45130011" lon="30.2431298">
        <ele>91.07</ele>
        <time>2026-08-29T22:40:09Z</time>
      </trkpt>
      <trkpt lat="59.45134301" lon="30.24296816">
        <ele>91.81</ele>
        <time>2026-08-29T22:40:27Z</time>
      </trkpt>
      <trkpt lat="59.45138288" lon="30.24280365">
        <ele>93.51</ele>
        <time>2026-08-29T22:40:47Z</time>
      </trkpt>
      <trkpt lat="59.45142874" lon="30.2426485">
        <ele>94.33</ele>
        <time>2026-08-29T22:41:01Z</time>
      </trkpt>
      <trkpt lat="59.45142647" lon="30.24245742">
        <ele>96.78</ele>
        <time>2026-08-29T22:41:20Z</time>
      </trkpt>
      <trkpt lat="59.45150232" lon="30.24234257">
        <ele>95.6</ele>
        <time>2026-08-29T22:41:34Z</time>
      </trkpt>
      <trkpt lat="59.45154413" lon="30.24218033">
        <ele>96.41</ele>
        <time>2026-08-29T22:41:51Z</time>
      </trkpt>
      <trkpt lat="59.4515611" lon="30.24200128">
        <ele>97.22</ele>
        <time>2026-08-29T22:42:04Z</time>
      </trkpt>
      <trkpt lat="59.45157093" lon="30.24182572">
        <ele>98.32</ele>
        <time>2026-08-29T22:42:16Z</time>
      </trkpt>
      <trkpt lat="59.45153775" lon="30.24165425">
        <ele>98.26</ele>
        <time>2026-08-29T22:42:28Z</time>
      </trkpt>
      <trkpt lat="59.45146402" lon="30.24153482">
        <ele>96.43</ele>
        <time>2026-08-29T22:42:53Z</time>
      </trkpt>
      <trkpt lat="59.45142007" lon="30.2413741">
        <ele>95.61</ele>
        <time>2026-08-29T22:43:06Z</time>
      </trkpt>
      <trkpt lat="59.45136937" lon="30.24122588">
        <ele>97.05</ele>
        <time>2026-08-29T22:43:15Z</time>
      </trkpt>
      <trkpt lat="59.45135981" lon="30.24104359">
        <ele>96.67</ele>
        <time>2026-08-29T22:43:26Z</time>
      </trkpt>
      <trkpt lat="59.45133692" lon="30.24086556">
        <ele>96.92</ele>
        <time>2026-08-29T22:43:37Z</time>
      </trkpt>
      <trkpt lat="59.45134579" lon="30.24068798">
        <ele>96.72</ele>
        <time>2026-08-29T22:43:50Z</time>
      </trkpt>
      <trkpt lat="59.45135961" lon="30.24050869">
        <ele>97.26</ele>
        <time>2026-08-29T22:44:04Z</time>
      </trkpt>
      <trkpt lat="59.45139151" lon="30.24032875">
        <ele>96.79</ele>
        <time>2026-08-29T22:44:16Z</time>
      </trkpt>
      <trkpt lat="59.45135517" lon="30.24016294">
        <ele>96.64</ele>
        <time>2026-08-29T22:45:17Z</time>
      </trkpt>
      <trkpt lat="59.45137778" lon="30.23998022">
        <ele>97.65</ele>
        <time>2026-08-29T22:45:28Z</time>
      </trkpt>
      <trkpt lat="59.45135589" lon="30.23980489">
        <ele>99.62</ele>
        <time>2026-08-29T22:45:44Z</time>
      </trkpt>
      <trkpt lat="59.45127801" lon="30.23970703">
        <ele>97.82</ele>
        <time>2026-08-29T22:45:58Z</time>
      </trkpt>
      <trkpt lat="59.4512593" lon="30.23953434">
        <ele>96.99</ele>
        <time>2026-08-29T22:46:11Z</time>
      </trkpt>
      <trkpt lat="59.45127616" lon="30.23935678">
        <ele>97.63</ele>
        <time>2026-08-29T22:46:24Z</time>
      </trkpt>
      <trkpt lat="59.45125197" lon="30.23917736">
        <ele>96.1</ele>
        <time>2026-08-29T22:47:21Z</time>
      </trkpt>
      <trkpt lat="59.45120034" lon="30.23902644">
        <ele>95.69</ele>
        <time>2026-08-29T22:47:32Z</time>
      </trkpt>
      <trkpt lat="59.45117099" lon="30.23884887">
        <ele>95.04</ele>
        <time>2026-08-29T22:47:41Z</time>
      </trkpt>
      <trkpt lat="59.4511193" lon="30.23870442">
        <ele>93.9</ele>
        <time>2026-08-29T22:47:54Z</time>
      </trkpt>
      <trkpt lat="59.45110595" lon="30.23850973">
        <ele>94.32</ele>
        <time>2026-08-29T22:48:07Z</time>
      </trkpt>
      <trkpt lat="59.45107285" lon="30.23831822">
        <ele>94.11</ele>
        <time>2026-08-29T22:48:14Z</time>
      </trkpt>
      <trkpt lat="59.45111822" lon="30.23816145">
        <ele>93.74</ele>
        <time>2026-08-29T22:48:25Z</time>
      </trkpt>
      <trkpt lat="59.45119875" lon="30.23803191">
        <ele>91.33</ele>
        <time>2026-08-29T22:48:42Z</time>
      </trkpt>
      <trkpt lat="59.45127794" lon="30.2379394">
        <ele>92.71</ele>
        <time>2026-08-29T22:48:53Z</time>
      </trkpt>
      <trkpt lat="59.45128916" lon="30.2377513">
        <ele>96.88</ele>
        <time>2026-08-29T22:49:03Z</time>
      </trkpt>
      <trkpt lat="59.45126448" lon="30.23757752">
        <ele>95.39</ele>
        <time>2026-08-29T22:49:12Z</time>
      </trkpt>
      <trkpt lat="59.45125922" lon="30.2373996">
        <ele>92.61</ele>
        <time>2026-08-29T22:49:20Z</time>
      </trkpt>
      <trkpt lat="59.45126847" lon="30.23721524">
        <ele>92.42</ele>
        <time>2026-08-29T22:49:32Z</time>
      </trkpt>
      <trkpt lat="59.45118819" lon="30.23711115">
        <ele>92.53</ele>
        <time>2026-08-29T22:50:41Z</time>
      </trkpt>
      <trkpt lat="59.45110071" lon="30.23703986">
        <ele>89.2</ele>
        <time>2026-08-29T22:50:51Z</time>
      </trkpt>
      <trkpt lat="59.45108889" lon="30.23685645">
        <ele>85.94</ele>
        <time>2026-08-29T22:51:06Z</time>
      </trkpt>
      <trkpt lat="59.45108194" lon="30.23667655">
        <ele>90.9</ele>
        <time>2026-08-29T22:51:17Z</time>
      </trkpt>
      <trkpt lat="59.45109118" lon="30.23650031">
        <ele>92.13</ele>
        <time>2026-08-29T22:51:26Z</time>
      </trkpt>
      <trkpt lat="59.45116218" lon="30.23637983">
        <ele>92.41</ele>
        <time>2026-08-29T22:51:36Z</time>
      </trkpt>
      <trkpt lat="59.45124228" lon="30.23626669">
        <ele>99.1</ele>
        <time>2026-08-29T22:51:42Z</time>
      </trkpt>
      <trkpt lat="59.45128294" lon="30.23610723">
        <ele>101.41</ele>
        <time>2026-08-29T22:51:54Z</time>
      </trkpt>
      <trkpt lat="59.45132752" lon="30.23594643">
        <ele>96.22</ele>
        <time>2026-08-29T22:52:11Z</time>
      </trkpt>
      <trkpt lat="59.45131698" lon="30.23575204">
        <ele>95.32</ele>
        <time>2026-08-29T22:52:24Z</time>
      </trkpt>
      <trkpt lat="59.45128751" lon="30.23557393">
        <ele>91.25</ele>
        <time>2026-08-29T22:52:37Z</time>
      </trkpt>
      <trkpt lat="59.45126518" lon="30.2354002">
        <ele>87.53</ele>
        <time>2026-08-29T22:52:47Z</time>
      </trkpt>
      <trkpt lat="59.45121581" lon="30.23523633">
        <ele>87.73</ele>
        <time>2026-08-29T22:52:57Z</time>
      </trkpt>
      <trkpt lat="59.45119917" lon="30.2350483">
        <ele>86.48</ele>
        <time>2026-08-29T22:53:09Z</time>
      </trkpt>
      <trkpt lat="59.45112721" lon="30.23492835">
        <ele>88.46</ele>
        <time>2026-08-29T22:53:15Z</time>
      </trkpt>
      <trkpt lat="59.45108381" lon="30.23477386">
        <ele>92.66</ele>
        <time>2026-08-29T22:53:27Z</time>
      </trkpt>
      <trkpt lat="59.4510565" lon="30.23460139">
        <ele>93.71</ele>
        <time>2026-08-29T22:53:38Z</time>
      </trkpt>
      <trkpt lat="59.45101994" lon="30.23443628">
        <ele>93.73</ele>
        <time>2026-08-29T22:53:55Z</time>
      </trkpt>
      <trkpt lat="59.45105579" lon="30.23427054">
        <ele>90.23</ele>
        <time>2026-08-29T22:54:07Z</time>
      </trkpt>
      <trkpt lat="59.45111672" lon="30.23413219">
        <ele>91.28</ele>
        <time>2026-08-29T22:54:20Z</time>
      </trkpt>
      <trkpt lat="59.45116144" lon="30.23397049">
        <ele>89.54</ele>
        <time>2026-08-29T22:54:33Z</time>
      </trkpt>
      <trkpt lat="59.45118735" lon="30.23379763">
        <ele>89.2</ele>
        <time>2026-08-29T22:54:44Z</time>
      </trkpt>
      <trkpt lat="59.45117025" lon="30.23362092">
        <ele>90.27</ele>
        <time>2026-08-29T22:54:56Z</time>
      </trkpt>
      <trkpt lat="59.45114896" lon="30.23344636">
        <ele>91.3</ele>
        <time>2026-08-29T22:55:55Z</time>
      </trkpt>
      <trkpt lat="59.45114185" lon="30.233264">
        <ele>86.95</ele>
        <time>2026-08-29T22:56:08Z</time>
      </trkpt>
      <trkpt lat="59.45111009" lon="30.23308005">
        <ele>88.52</ele>
        <time>2026-08-29T22:56:18Z</time>
      </trkpt>
      <trkpt lat="59.4510605" lon="30.23290977">
        <ele>94.81</ele>
        <time>2026-08-29T22:56:23Z</time>
      </trkpt>
      <trkpt lat="59.45109159" lon="30.23274429">
        <ele>90.9</ele>
        <time>2026-08-29T22:57:53Z</time>
      </trkpt>
      <trkpt lat="59.45109665" lon="30.2325638">
        <ele>95.22</ele>
        <time>2026-08-29T22:58:00Z</time>
      </trkpt>
      <trkpt lat="59.45108183" lon="30.23237208">
        <ele>94.97</ele>
        <time>2026-08-29T22:58:12Z</time>
      </trkpt>
      <trkpt lat="59.45108037" lon="30.23218062">
        <ele>93.67</ele>
        <time>2026-08-29T22:58:24Z</time>
      </trkpt>
      <trkpt lat="59.45107287" lon="30.23199449">
        <ele>93.89</ele>
        <time>2026-08-29T22:58:34Z</time>
      </trkpt>
      <trkpt lat="59.45107626" lon="30.23180722">
        <ele>93.18</ele>
        <time>2026-08-29T22:58:46Z</time>
      </trkpt>
      <trkpt lat="59.45108554" lon="30.23161354">
        <ele>93.59</ele>
        <time>2026-08-29T22:58:54Z</time>
      </trkpt>
      <trkpt lat="59.45108415" lon="30.23143658">
        <ele>94.83</ele>
        <time>2026-08-29T22:59:06Z</time>
      </trkpt>
      <trkpt lat="59.45109099" lon="30.2312453">
        <ele>97.97</ele>
        <time>2026-08-29T22:59:20Z</time>
      </trkpt>
      <trkpt lat="59.45109836" lon="30.23105004">
        <ele>96.41</ele>
        <time>2026-08-29T22:59:35Z</time>
      </trkpt>
      <trkpt lat="59.45107458" lon="30.23087655">
        <ele>95.81</ele>
        <time>2026-08-29T22:59:47Z</time>
      </trkpt>
      <trkpt lat="59.45109094" lon="30.23069809">
        <ele>96.78</ele>
        <time>2026-08-29T22:59:57Z</time>
      </trkpt>
      <trkpt lat="59.45107252" lon="30.23051302">
        <ele>99.02</ele>
        <time>2026-08-29T23:00:09Z</time>
      </trkpt>
      <trkpt lat="59.45108674" lon="30.23033403">
        <ele>99.37</ele>
        <time>2026-08-29T23:00:18Z</time>
      </trkpt>
      <trkpt lat="59.45112637" lon="30.23017044">
        <ele>101.71</ele>
        <time>2026-08-29T23:00:29Z</time>
      </trkpt>
      <trkpt lat="59.4511449" lon="30.22999738">
        <ele>96.73</ele>
        <time>2026-08-29T23:00:48Z</time>
      </trkpt>
      <trkpt lat="59.45112195" lon="30.22982494">
        <ele>95.54</ele>
        <time>2026-08-29T23:01:04Z</time>
      </trkpt>
      <trkpt lat="59.45109223" lon="30.22964887">
        <ele>96</ele>
        <time>2026-08-29T23:01:19Z</time>
      </trkpt>
      <trkpt lat="59.45104503" lon="30.22949281">
        <ele>90.7</ele>
        <time>2026-08-29T23:01:39Z</time>
      </trkpt>
      <trkpt lat="59.45104391" lon="30.22931381">
        <ele>90.87</ele>
        <time>2026-08-29T23:02:02Z</time>
      </trkpt>
      <trkpt lat="59.45095841" lon="30.22939653">
        <ele>87.08</ele>
        <time>2026-08-29T23:03:19Z</time>
      </trkpt>
      <trkpt lat="59.45089736" lon="30.2293339">
        <ele>89.85</ele>
        <time>2026-08-29T23:05:20Z</time>
      </trkpt>
      <trkpt lat="59.4509014" lon="30.22933372">
        <ele>90.94</ele>
        <time>2026-08-29T23:07:21Z</time>
      </trkpt>
      <trkpt lat="59.45090588" lon="30.22933728">
        <ele>93.71</ele>
        <time>2026-08-29T23:09:22Z</time>
      </trkpt>
      <trkpt lat="59.45090606" lon="30.22934656">
        <ele>93.79</ele>
        <time>2026-08-29T23:11:23Z</time>
      </trkpt>
      <trkpt lat="59.45090448" lon="30.22934864">
        <ele>93.9</ele>
        <time>2026-08-29T23:13:24Z</time>
      </trkpt>
      <trkpt lat="59.45080338" lon="30.22938834">
        <ele>95.31</ele>
        <time>2026-08-29T23:13:51Z</time>
      </trkpt>
      <trkpt lat="59.45071179" lon="30.22942803">
        <ele>96.64</ele>
        <time>2026-08-29T23:14:01Z</time>
      </trkpt>
      <trkpt lat="59.45061841" lon="30.22942727">
        <ele>96.84</ele>
        <time>2026-08-29T23:14:11Z</time>
      </trkpt>
      <trkpt lat="59.45052636" lon="30.22943487">
        <ele>95.77</ele>
        <time>2026-08-29T23:14:24Z</time>
      </trkpt>
      <trkpt lat="59.45042655" lon="30.22947215">
        <ele>96.5</ele>
        <time>2026-08-29T23:14:33Z</time>
      </trkpt>
      <trkpt lat="59.45032966" lon="30.22947149">
        <ele>95.5</ele>
        <time>2026-08-29T23:14:43Z</time>
      </trkpt>
      <trkpt lat="59.45023629" lon="30.22947645">
        <ele>94.85</ele>
        <time>2026-08-29T23:14:53Z</time>
      </trkpt>
      <trkpt lat="59.45014585" lon="30.22945984">
        <ele>95.94</ele>
        <time>2026-08-29T23:15:02Z</time>
      </trkpt>
      <trkpt lat="59.45005135" lon="30.22948088">
        <ele>96.79</ele>
        <time>2026-08-29T23:15:10Z</time>
      </trkpt>
      <trkpt lat="59.44995244" lon="30.22948977">
        <ele>97.65</ele>
        <time>2026-08-29T23:15:20Z</time>
      </trkpt>
      <trkpt lat="59.44985599" lon="30.22948425">
        <ele>95.22</ele>
        <time>2026-08-29T23:15:30Z</time>
      </trkpt>
      <trkpt lat="59.44976389" lon="30.2295473">
        <ele>93.9</ele>
        <time>2026-08-29T23:15:39Z</time>
      </trkpt>
      <trkpt lat="59.44966478" lon="30.22957017">
        <ele>96.59</ele>
        <time>2026-08-29T23:15:48Z</time>
      </trkpt>
      <trkpt lat="59.44956628" lon="30.2295855">
        <ele>96.71</ele>
        <time>2026-08-29T23:15:57Z</time>
      </trkpt>
      <trkpt lat="59.44947573" lon="30.22958335">
        <ele>94.13</ele>
        <time>2026-08-29T23:16:06Z</time>
      </trkpt>
      <trkpt lat="59.44938108" lon="30.22957444">
        <ele>97.77</ele>
        <time>2026-08-29T23:16:15Z</time>
      </trkpt>
      <trkpt lat="59.44942295" lon="30.22973438">
        <ele>94.97</ele>
        <time>2026-08-29T23:16:59Z</time>
      </trkpt>
      <trkpt lat="59.44942555" lon="30.22991449">
        <ele>95.6</ele>
        <time>2026-08-29T23:17:10Z</time>
      </trkpt>
      <trkpt lat="59.44936121" lon="30.23004072">
        <ele>93.48</ele>
        <time>2026-08-29T23:17:23Z</time>
      </trkpt>
      <trkpt lat="59.44937367" lon="30.23021877">
        <ele>92.41</ele>
        <time>2026-08-29T23:17:36Z</time>
      </trkpt>
      <trkpt lat="59.44940179" lon="30.23038705">
        <ele>94.34</ele>
        <time>2026-08-29T23:17:48Z</time>
      </trkpt>
      <trkpt lat="59.44945953" lon="30.23053444">
        <ele>95.54</ele>
        <time>2026-08-29T23:18:00Z</time>
      </trkpt>
      <trkpt lat="59.44944068" lon="30.23070973">
        <ele>93.6</ele>
        <time>2026-08-29T23:18:11Z</time>
      </trkpt>
      <trkpt lat="59.44945062" lon="30.23089398">
        <ele>95.16</ele>
        <time>2026-08-29T23:18:23Z</time>
      </trkpt>
      <trkpt lat="59.44946973" lon="30.23107739">
        <ele>96.45</ele>
        <time>2026-08-29T23:18:34Z</time>
      </trkpt>
      <trkpt lat="59.44945977" lon="30.23125459">
        <ele>96.99</ele>
        <time>2026-08-29T23:18:43Z</time>
      </trkpt>
      <trkpt lat="59.44947029" lon="30.23144267">
        <ele>98.3</ele>
        <time>2026-08-29T23:18:53Z</time>
      </trkpt>
      <trkpt lat="59.44947316" lon="30.23164659">
        <ele>99.02</ele>
        <time>2026-08-29T23:19:03Z</time>
      </trkpt>
      <trkpt lat="59.44948064" lon="30.23182295">
        <ele>96.21</ele>
        <time>2026-08-29T23:19:12Z</time>
      </trkpt>
      <trkpt lat="59.44948185" lon="30.23200655">
        <ele>99.17</ele>
        <time>2026-08-29T23:19:21Z</time>
      </trkpt>
      <trkpt lat="59.44949751" lon="30.23218792">
        <ele>99.32</ele>
        <time>2026-08-29T23:19:29Z</time>
      </trkpt>
      <trkpt lat="59.4494853" lon="30.2323666">
        <ele>96.51</ele>
        <time>2026-08-29T23:19:38Z</time>
      </trkpt>
      <trkpt lat="59.44949699" lon="30.23254775">
        <ele>95.53</ele>
        <time>2026-08-29T23:19:48Z</time>
      </trkpt>
      <trkpt lat="59.44947394" lon="30.23272605">
        <ele>96.27</ele>
        <time>2026-08-29T23:19:57Z</time>
      </trkpt>
      <trkpt lat="59.44949905" lon="30.232904">
        <ele>96.2</ele>
        <time>2026-08-29T23:20:08Z</time>
      </trkpt>
      <trkpt lat="59.44953588" lon="30.23307351">
        <ele>98.87</ele>
        <time>2026-08-29T23:20:18Z</time>
      </trkpt>
      <trkpt lat="59.44950557" lon="30.2332426">
        <ele>94.14</ele>
        <time>2026-08-29T23:21:19Z</time>
      </trkpt>
      <trkpt lat="59.44952974" lon="30.23342383">
        <ele>91.25</ele>
        <time>2026-08-29T23:21:31Z</time>
      </trkpt>
      <trkpt lat="59.44952355" lon="30.23360831">
        <ele>91.61</ele>
        <time>2026-08-29T23:21:42Z</time>
      </trkpt>
      <trkpt lat="59.44951888" lon="30.23379885">
        <ele>93.68</ele>
        <time>2026-08-29T23:21:50Z</time>
      </trkpt>
      <trkpt lat="59.44955633" lon="30.23397008">
        <ele>97.37</ele>
        <time>2026-08-29T23:22:01Z</time>
      </trkpt>
      <trkpt lat="59.44950134" lon="30.23411564">
        <ele>95.52</ele>
        <time>2026-08-29T23:22:11Z</time>
      </trkpt>
      <trkpt lat="59.44945748" lon="30.23428079">
        <ele>96.19</ele>
        <time>2026-08-29T23:22:23Z</time>
      </trkpt>
      <trkpt lat="59.44950476" lon="30.23444401">
        <ele>93.37</ele>
        <time>2026-08-29T23:22:36Z</time>
      </trkpt>
      <trkpt lat="59.44955381" lon="30.23459441">
        <ele>94.8</ele>
        <time>2026-08-29T23:22:46Z</time>
      </trkpt>
      <trkpt lat="59.44958874" lon="30.23476778">
        <ele>97.62</ele>
        <time>2026-08-29T23:22:56Z</time>
      </trkpt>
      <trkpt lat="59.44957622" lon="30.23494471">
        <ele>95.24</ele>
        <time>2026-08-29T23:23:06Z</time>
      </trkpt>
      <trkpt lat="59.44957916" lon="30.23513083">
        <ele>94</ele>
        <time>2026-08-29T23:23:17Z</time>
      </trkpt>
      <trkpt lat="59.44959763" lon="30.23531049">
        <ele>92.32</ele>
        <time>2026-08-29T23:23:28Z</time>
      </trkpt>
      <trkpt lat="59.44958522" lon="30.23549233">
        <ele>91.5</ele>
        <time>2026-08-29T23:23:38Z</time>
      </trkpt>
      <trkpt lat="59.44960372" lon="30.235666">
        <ele>92.5</ele>
        <time>2026-08-29T23:23:49Z</time>
      </trkpt>
      <trkpt lat="59.44962713" lon="30.23584213">
        <ele>94.97</ele>
        <time>2026-08-29T23:23:59Z</time>
      </trkpt>
      <trkpt lat="59.44960568" lon="30.23602797">
        <ele>93.55</ele>
        <time>2026-08-29T23:24:09Z</time>
      </trkpt>
      <trkpt lat="59.44962432" lon="30.23620206">
        <ele>96.45</ele>
        <time>2026-08-29T23:24:19Z</time>
      </trkpt>
      <trkpt lat="59.44960668" lon="30.2363882">
        <ele>94.2</ele>
        <time>2026-08-29T23:24:29Z</time>
      </trkpt>
      <trkpt lat="59.44960928" lon="30.23657548">
        <ele>92.34</ele>
        <time>2026-08-29T23:24:40Z</time>
      </trkpt>
      <trkpt lat="59.44961454" lon="30.23676281">
        <ele>91.14</ele>
        <time>2026-08-29T23:24:50Z</time>
      </trkpt>
      <trkpt lat="59.44960283" lon="30.23695488">
        <ele>93.5</ele>
        <time>2026-08-29T23:25:00Z</time>
      </trkpt>
      <trkpt lat="59.44959489" lon="30.23713185">
        <ele>94.47</ele>
        <time>2026-08-29T23:25:10Z</time>
      </trkpt>
      <trkpt lat="59.44966475" lon="30.23724542">
        <ele>93.86</ele>
        <time>2026-08-29T23:25:23Z</time>
      </trkpt>
      <trkpt lat="59.44966842" lon="30.23742495">
        <ele>93.86</ele>
        <time>2026-08-29T23:25:34Z</time>
      </trkpt>
      <trkpt lat="59.44966651" lon="30.2376035">
        <ele>95.18</ele>
        <time>2026-08-29T23:26:26Z</time>
      </trkpt>
      <trkpt lat="59.44965278" lon="30.23778116">
        <ele>93.8</ele>
        <time>2026-08-29T23:26:37Z</time>
      </trkpt>
      <trkpt lat="59.44964972" lon="30.23796024">
        <ele>96.26</ele>
        <time>2026-08-29T23:26:46Z</time>
      </trkpt>
      <trkpt lat="59.44969635" lon="30.23812277">
        <ele>100.81</ele>
        <time>2026-08-29T23:26:55Z</time>
      </trkpt>
      <trkpt lat="59.44969844" lon="30.23830414">
        <ele>99.89</ele>
        <time>2026-08-29T23:27:04Z</time>
      </trkpt>
      <trkpt lat="59.44969953" lon="30.23848267">
        <ele>99.52</ele>
        <time>2026-08-29T23:27:15Z</time>
      </trkpt>
      <trkpt lat="59.44968932" lon="30.23867288">
        <ele>98.17</ele>
        <time>2026-08-29T23:27:28Z</time>
      </trkpt>
      <trkpt lat="59.44963464" lon="30.2388197">
        <ele>97.85</ele>
        <time>2026-08-29T23:27:40Z</time>
      </trkpt>
      <trkpt lat="59.44964569" lon="30.23900176">
        <ele>97.47</ele>
        <time>2026-08-29T23:27:52Z</time>
      </trkpt>
      <trkpt lat="59.44970043" lon="30.23914508">
        <ele>98.47</ele>
        <time>2026-08-29T23:28:05Z</time>
      </trkpt>
      <trkpt lat="59.44968952" lon="30.23933651">
        <ele>93.75</ele>
        <time>2026-08-29T23:28:18Z</time>
      </trkpt>
      <trkpt lat="59.44966353" lon="30.23950881">
        <ele>93.02</ele>
        <time>2026-08-29T23:28:29Z</time>
      </trkpt>
      <trkpt lat="59.44966717" lon="30.23969351">
        <ele>93.91</ele>
        <time>2026-08-29T23:28:41Z</time>
      </trkpt>
      <trkpt lat="59.44966511" lon="30.23988148">
        <ele>96.28</ele>
        <time>2026-08-29T23:29:00Z</time>
      </trkpt>
      <trkpt lat="59.4496996" lon="30.2400459">
        <ele>98.71</ele>
        <time>2026-08-29T23:29:13Z</time>
      </trkpt>
      <trkpt lat="59.44973152" lon="30.24021236">
        <ele>95.51</ele>
        <time>2026-08-29T23:29:25Z</time>
      </trkpt>
      <trkpt lat="59.44975528" lon="30.24038601">
        <ele>94.12</ele>
        <time>2026-08-29T23:29:36Z</time>
      </trkpt>
      <trkpt lat="59.44975629" lon="30.24056346">
        <ele>93.79</ele>
        <time>2026-08-29T23:30:07Z</time>
      </trkpt>
      <trkpt lat="59.4497555" lon="30.24074553">
        <ele>93.84</ele>
        <time>2026-08-29T23:30:17Z</time>
      </trkpt>
      <trkpt lat="59.44972997" lon="30.24092711">
        <ele>93.91</ele>
        <time>2026-08-29T23:30:31Z</time>
      </trkpt>
      <trkpt lat="59.44976947" lon="30.2410901">
        <ele>92.77</ele>
        <time>2026-08-29T23:30:44Z</time>
      </trkpt>
      <trkpt lat="59.44979032" lon="30.24126186">
        <ele>94.33</ele>
        <time>2026-08-29T23:30:55Z</time>
      </trkpt>
      <trkpt lat="59.4497844" lon="30.24144238">
        <ele>93.37</ele>
        <time>2026-08-29T23:31:08Z</time>
      </trkpt>
      <trkpt lat="59.44979232" lon="30.24162657">
        <ele>93.32</ele>
        <time>2026-08-29T23:31:18Z</time>
      </trkpt>
      <trkpt lat="59.44975287" lon="30.24178608">
        <ele>93.89</ele>
        <time>2026-08-29T23:31:29Z</time>
      </trkpt>
      <trkpt lat="59.44975939" lon="30.241974">
        <ele>94.2</ele>
        <time>2026-08-29T23:31:42Z</time>
      </trkpt>
      <trkpt lat="59.4497812" lon="30.24216248">
        <ele>92.73</ele>
        <time>2026-08-29T23:31:54Z</time>
      </trkpt>
      <trkpt lat="59.44979641" lon="30.24233715">
        <ele>93.59</ele>
        <time>2026-08-29T23:32:03Z</time>
      </trkpt>
      <trkpt lat="59.44982894" lon="30.24250819">
        <ele>95.52</ele>
        <time>2026-08-29T23:32:14Z</time>
      </trkpt>
      <trkpt lat="59.44982552" lon="30.24268873">
        <ele>94.6</ele>
        <time>2026-08-29T23:32:25Z</time>
      </trkpt>
      <trkpt lat="59.44979581" lon="30.24285912">
        <ele>94.15</ele>
        <time>2026-08-29T23:33:18Z</time>
      </trkpt>
      <trkpt lat="59.44982633" lon="30.24303464">
        <ele>93.38</ele>
        <time>2026-08-29T23:33:28Z</time>
      </trkpt>
      <trkpt lat="59.44981974" lon="30.24321447">
        <ele>94.21</ele>
        <time>2026-08-29T23:33:40Z</time>
      </trkpt>
      <trkpt lat="59.44982184" lon="30.24339593">
        <ele>95.5</ele>
        <time>2026-08-29T23:33:51Z</time>
      </trkpt>
      <trkpt lat="59.44984175" lon="30.24356822">
        <ele>93.96</ele>
        <time>2026-08-29T23:34:03Z</time>
      </trkpt>
      <trkpt lat="59.44983618" lon="30.24374764">
        <ele>93.71</ele>
        <time>2026-08-29T23:34:57Z</time>
      </trkpt>
      <trkpt lat="59.44982815" lon="30.24392706">
        <ele>90.93</ele>
        <time>2026-08-29T23:35:20Z</time>
      </trkpt>
      <trkpt lat="59.44985644" lon="30.24410113">
        <ele>92.09</ele>
        <time>2026-08-29T23:35:36Z</time>
      </trkpt>
      <trkpt lat="59.44989695" lon="30.24427129">
        <ele>90.71</ele>
        <time>2026-08-29T23:36:22Z</time>
      </trkpt>
      <trkpt lat="59.44990551" lon="30.24444901">
        <ele>89.81</ele>
        <time>2026-08-29T23:36:37Z</time>
      </trkpt>
      <trkpt lat="59.44988004" lon="30.244629">
        <ele>88.46</ele>
        <time>2026-08-29T23:36:54Z</time>
      </trkpt>
      <trkpt lat="59.44988108" lon="30.24480667">
        <ele>87.7</ele>
        <time>2026-08-29T23:37:06Z</time>
      </trkpt>
      <trkpt lat="59.44989906" lon="30.24498103">
        <ele>88.45</ele>
        <time>2026-08-29T23:37:19Z</time>
      </trkpt>
      <trkpt lat="59.44996056" lon="30.24511038">
        <ele>90.42</ele>
        <time>2026-08-29T23:37:32Z</time>
      </trkpt>
      <trkpt lat="59.44991724" lon="30.24527771">
        <ele>90.76</ele>
        <time>2026-08-29T23:39:03Z</time>
      </trkpt>
      <trkpt lat="59.44989237" lon="30.24545733">
        <ele>90.05</ele>
        <time>2026-08-29T23:39:24Z</time>
      </trkpt>
      <trkpt lat="59.44985996" lon="30.24529017">
        <ele>89.21</ele>
        <time>2026-08-29T23:39:46Z</time>
      </trkpt>
      <trkpt lat="59.4497893" lon="30.24517343">
        <ele>88.42</ele>
        <time>2026-08-29T23:40:02Z</time>
      </trkpt>
      <trkpt lat="59.44973254" lon="30.24503077">
        <ele>88.15</ele>
        <time>2026-08-29T23:40:17Z</time>
      </trkpt>
      <trkpt lat="59.44968935" lon="30.24487462">
        <ele>86.64</ele>
        <time>2026-08-29T23:40:29Z</time>
      </trkpt>
      <trkpt lat="59.4496392" lon="30.24471204">
        <ele>86.72</ele>
        <time>2026-08-29T23:40:41Z</time>
      </trkpt>
      <trkpt lat="59.44956553" lon="30.24460147">
        <ele>87.42</ele>
        <time>2026-08-29T23:40:51Z</time>
      </trkpt>
      <trkpt lat="59.44949131" lon="30.24449564">
        <ele>86.72</ele>
        <time>2026-08-29T23:41:01Z</time>
      </trkpt>
      <trkpt lat="59.44940555" lon="30.24440593">
        <ele>87.63</ele>
        <time>2026-08-29T23:41:12Z</time>
      </trkpt>
      <trkpt lat="59.4493361" lon="30.24428473">
        <ele>87.65</ele>
        <time>2026-08-29T23:41:23Z</time>
      </trkpt>
      <trkpt lat="59.44925827" lon="30.24419231">
        <ele>89.85</ele>
        <time>2026-08-29T23:41:34Z</time>
      </trkpt>
      <trkpt lat="59.44917871" lon="30.24410662">
        <ele>89.31</ele>
        <time>2026-08-29T23:41:45Z</time>
      </trkpt>
      <trkpt lat="59.4490941" lon="30.24401309">
        <ele>90.01</ele>
        <time>2026-08-29T23:41:55Z</time>
      </trkpt>
      <trkpt lat="59.44901999" lon="30.243912">
        <ele>89.87</ele>
        <time>2026-08-29T23:42:07Z</time>
      </trkpt>
      <trkpt lat="59.44893621" lon="30.24383881">
        <ele>90.27</ele>
        <time>2026-08-29T23:42:19Z</time>
      </trkpt>
      <trkpt lat="59.44884141" lon="30.24382518">
        <ele>90.23</ele>
        <time>2026-08-29T23:42:31Z</time>
      </trkpt>
      <trkpt lat="59.44874473" lon="30.24379051">
        <ele>90.74</ele>
        <time>2026-08-29T23:42:43Z</time>
      </trkpt>
      <trkpt lat="59.44865938" lon="30.24373127">
        <ele>88.96</ele>
        <time>2026-08-29T23:42:54Z</time>
      </trkpt>
      <trkpt lat="59.44856508" lon="30.24368361">
        <ele>88.08</ele>
        <time>2026-08-29T23:43:05Z</time>
      </trkpt>
      <trkpt lat="59.44854569" lon="30.24349579">
        <ele>92.38</ele>
        <time>2026-08-29T23:44:09Z</time>
      </trkpt>
      <trkpt lat="59.44853387" lon="30.24331392">
        <ele>91.22</ele>
        <time>2026-08-29T23:44:18Z</time>
      </trkpt>
      <trkpt lat="59.44854077" lon="30.2431323">
        <ele>91.76</ele>
        <time>2026-08-29T23:44:30Z</time>
      </trkpt>
      <trkpt lat="59.44853315" lon="30.24294546">
        <ele>94.65</ele>
        <time>2026-08-29T23:44:41Z</time>
      </trkpt>
      <trkpt lat="59.44853242" lon="30.24276873">
        <ele>92.34</ele>
        <time>2026-08-29T23:44:52Z</time>
      </trkpt>
      <trkpt lat="59.44856361" lon="30.24259746">
        <ele>93.36</ele>
        <time>2026-08-29T23:45:05Z</time>
      </trkpt>
      <trkpt lat="59.4485484" lon="30.2424156">
        <ele>93.62</ele>
        <time>2026-08-29T23:45:16Z</time>
      </trkpt>
      <trkpt lat="59.44855067" lon="30.24223345">
        <ele>94.5</ele>
        <time>2026-08-29T23:45:27Z</time>
      </trkpt>
      <trkpt lat="59.44852749" lon="30.24205563">
        <ele>90.52</ele>
        <time>2026-08-29T23:45:39Z</time>
      </trkpt>
      <trkpt lat="59.44848653" lon="30.24188015">
        <ele>92.66</ele>
        <time>2026-08-29T23:45:49Z</time>
      </trkpt>
      <trkpt lat="59.44846586" lon="30.24170163">
        <ele>93.05</ele>
        <time>2026-08-29T23:46:00Z</time>
      </trkpt>
      <trkpt lat="59.44844127" lon="30.24152932">
        <ele>95.6</ele>
        <time>2026-08-29T23:46:19Z</time>
      </trkpt>
      <trkpt lat="59.44845148" lon="30.24134217">
        <ele>96.75</ele>
        <time>2026-08-29T23:46:34Z</time>
      </trkpt>
      <trkpt lat="59.44845165" lon="30.24115868">
        <ele>94.02</ele>
        <time>2026-08-29T23:46:47Z</time>
      </trkpt>
      <trkpt lat="59.44843528" lon="30.24097935">
        <ele>92.41</ele>
        <time>2026-08-29T23:46:59Z</time>
      </trkpt>
      <trkpt lat="59.44844216" lon="30.24079739">
        <ele>91.8</ele>
        <time>2026-08-29T23:47:09Z</time>
      </trkpt>
      <trkpt lat="59.44845618" lon="30.24061159">
        <ele>93.78</ele>
        <time>2026-08-29T23:47:21Z</time>
      </trkpt>
      <trkpt lat="59.4484549" lon="30.24042288">
        <ele>94.72</ele>
        <time>2026-08-29T23:47:35Z</time>
      </trkpt>
      <trkpt lat="59.44848574" lon="30.24024897">
        <ele>91.16</ele>
        <time>2026-08-29T23:47:50Z</time>
      </trkpt>
      <trkpt lat="59.44847279" lon="30.24005755">
        <ele>91.31</ele>
        <time>2026-08-29T23:48:01Z</time>
      </trkpt>
      <trkpt lat="59.44846988" lon="30.23986553">
        <ele>88.44</ele>
        <time>2026-08-29T23:48:12Z</time>
      </trkpt>
      <trkpt lat="59.44844717" lon="30.23967833">
        <ele>88.22</ele>
        <time>2026-08-29T23:48:23Z</time>
      </trkpt>
      <trkpt lat="59.4484283" lon="30.23949908">
        <ele>88.42</ele>
        <time>2026-08-29T23:48:33Z</time>
      </trkpt>
      <trkpt lat="59.44841925" lon="30.23930764">
        <ele>85.98</ele>
        <time>2026-08-29T23:48:44Z</time>
      </trkpt>
      <trkpt lat="59.44838828" lon="30.23913337">
        <ele>91.95</ele>
        <time>2026-08-29T23:49:33Z</time>
      </trkpt>
      <trkpt lat="59.44837055" lon="30.23895871">
        <ele>91.89</ele>
        <time>2026-08-29T23:49:48Z</time>
      </trkpt>
      <trkpt lat="59.44836633" lon="30.2387778">
        <ele>88.66</ele>
        <time>2026-08-29T23:50:01Z</time>
      </trkpt>
      <trkpt lat="59.44838485" lon="30.23859412">
        <ele>88.15</ele>
        <time>2026-08-29T23:50:12Z</time>
      </trkpt>
      <trkpt lat="59.44837655" lon="30.23841695">
        <ele>91.2</ele>
        <time>2026-08-29T23:50:27Z</time>
      </trkpt>
      <trkpt lat="59.4483585" lon="30.23822796">
        <ele>92.56</ele>
        <time>2026-08-29T23:50:38Z</time>
      </trkpt>
      <trkpt lat="59.44835886" lon="30.23804118">
        <ele>91.76</ele>
        <time>2026-08-29T23:50:52Z</time>
      </trkpt>
      <trkpt lat="59.44835125" lon="30.23785237">
        <ele>92.38</ele>
        <time>2026-08-29T23:51:03Z</time>
      </trkpt>
      <trkpt lat="59.44833103" lon="30.23767146">
        <ele>91.74</ele>
        <time>2026-08-29T23:51:15Z</time>
      </trkpt>
      <trkpt lat="59.44831572" lon="30.2374853">
        <ele>90.54</ele>
        <time>2026-08-29T23:51:27Z</time>
      </trkpt>
      <trkpt lat="59.44831853" lon="30.2373085">
        <ele>90.79</ele>
        <time>2026-08-29T23:51:38Z</time>
      </trkpt>
      <trkpt lat="59.44831536" lon="30.23712956">
        <ele>91.86</ele>
        <time>2026-08-29T23:51:49Z</time>
      </trkpt>
      <trkpt lat="59.44834696" lon="30.23694993">
        <ele>89.85</ele>
        <time>2026-08-29T23:52:00Z</time>
      </trkpt>
      <trkpt lat="59.44831569" lon="30.23677629">
        <ele>91.09</ele>
        <time>2026-08-29T23:52:10Z</time>
      </trkpt>
      <trkpt lat="59.44831523" lon="30.23658558">
        <ele>91.35</ele>
        <time>2026-08-29T23:52:22Z</time>
      </trkpt>
      <trkpt lat="59.4483257" lon="30.23639408">
        <ele>90.18</ele>
        <time>2026-08-29T23:52:33Z</time>
      </trkpt>
      <trkpt lat="59.44832918" lon="30.23619983">
        <ele>91.48</ele>
        <time>2026-08-29T23:52:44Z</time>
      </trkpt>
      <trkpt lat="59.44833311" lon="30.23602284">
        <ele>92.36</ele>
        <time>2026-08-29T23:52:54Z</time>
      </trkpt>
      <trkpt lat="59.44833878" lon="30.23584518">
        <ele>91.13</ele>
        <time>2026-08-29T23:53:03Z</time>
      </trkpt>
      <trkpt lat="59.44829707" lon="30.23568093">
        <ele>93.58</ele>
        <time>2026-08-29T23:53:15Z</time>
      </trkpt>
      <trkpt lat="59.44829709" lon="30.23549316">
        <ele>92.2</ele>
        <time>2026-08-29T23:53:26Z</time>
      </trkpt>
      <trkpt lat="59.44827242" lon="30.23530797">
        <ele>91.91</ele>
        <time>2026-08-29T23:53:36Z</time>
      </trkpt>
      <trkpt lat="59.44826721" lon="30.23512928">
        <ele>91.52</ele>
        <time>2026-08-29T23:53:46Z</time>
      </trkpt>
      <trkpt lat="59.44828486" lon="30.23494298">
        <ele>93.02</ele>
        <time>2026-08-29T23:53:58Z</time>
      </trkpt>
      <trkpt lat="59.44826382" lon="30.2347681">
        <ele>94.21</ele>
        <time>2026-08-29T23:54:09Z</time>
      </trkpt>
      <trkpt lat="59.44829081" lon="30.23459341">
        <ele>90.38</ele>
        <time>2026-08-29T23:54:24Z</time>
      </trkpt>
      <trkpt lat="59.44827595" lon="30.2344109">
        <ele>90.64</ele>
        <time>2026-08-29T23:54:35Z</time>
      </trkpt>
      <trkpt lat="59.44823291" lon="30.23424758">
        <ele>88.94</ele>
        <time>2026-08-29T23:54:46Z</time>
      </trkpt>
      <trkpt lat="59.44822935" lon="30.23406226">
        <ele>91.98</ele>
        <time>2026-08-29T23:54:57Z</time>
      </trkpt>
      <trkpt lat="59.44822592" lon="30.23387388">
        <ele>91.98</ele>
        <time>2026-08-29T23:55:09Z</time>
      </trkpt>
      <trkpt lat="59.44821307" lon="30.23369176">
        <ele>90.39</ele>
        <time>2026-08-29T23:55:21Z</time>
      </trkpt>
      <trkpt lat="59.44820834" lon="30.23351483">
        <ele>91.8</ele>
        <time>2026-08-29T23:55:31Z</time>
      </trkpt>
      <trkpt lat="59.44819799" lon="30.23333825">
        <ele>90.67</ele>
        <time>2026-08-29T23:55:43Z</time>
      </trkpt>
      <trkpt lat="59.44819646" lon="30.23315574">
        <ele>90.47</ele>
        <time>2026-08-29T23:55:53Z</time>
      </trkpt>
      <trkpt lat="59.4481844" lon="30.23296451">
        <ele>93.95</ele>
        <time>2026-08-29T23:56:47Z</time>
      </trkpt>
      <trkpt lat="59.44817741" lon="30.23277247">
        <ele>94.09</ele>
        <time>2026-08-29T23:56:59Z</time>
      </trkpt>
      <trkpt lat="59.44816995" lon="30.23257965">
        <ele>91.76</ele>
        <time>2026-08-29T23:57:10Z</time>
      </trkpt>
      <trkpt lat="59.44818551" lon="30.23240339">
        <ele>92.69</ele>
        <time>2026-08-29T23:57:21Z</time>
      </trkpt>
      <trkpt lat="59.44816155" lon="30.23223069">
        <ele>93.56</ele>
        <time>2026-08-29T23:57:31Z</time>
      </trkpt>
      <trkpt lat="59.44813782" lon="30.23205604">
        <ele>91.29</ele>
        <time>2026-08-29T23:57:41Z</time>
      </trkpt>
      <trkpt lat="59.44807767" lon="30.23191597">
        <ele>93.48</ele>
        <time>2026-08-29T23:57:50Z</time>
      </trkpt>
      <trkpt lat="59.44807387" lon="30.23173042">
        <ele>93.42</ele>
        <time>2026-08-29T23:57:59Z</time>
      </trkpt>
      <trkpt lat="59.44814799" lon="30.23161727">
        <ele>92.69</ele>
        <time>2026-08-29T23:58:11Z</time>
      </trkpt>
      <trkpt lat="59.44820976" lon="30.23147824">
        <ele>93.74</ele>
        <time>2026-08-29T23:58:24Z</time>
      </trkpt>
      <trkpt lat="59.44821115" lon="30.23129614">
        <ele>95.72</ele>
        <time>2026-08-29T23:58:36Z</time>
      </trkpt>
      <trkpt lat="59.4481603" lon="30.2311388">
        <ele>92.42</ele>
        <time>2026-08-29T23:58:53Z</time>
      </trkpt>
      <trkpt lat="59.4481609" lon="30.23095084">
        <ele>91.18</ele>
        <time>2026-08-29T23:59:06Z</time>
      </trkpt>
      <trkpt lat="59.44817009" lon="30.23077547">
        <ele>91.67</ele>
        <time>2026-08-29T23:59:16Z</time>
      </trkpt>
      <trkpt lat="59.44811349" lon="30.23062449">
        <ele>90.12</ele>
        <time>2026-08-29T23:59:36Z</time>
      </trkpt>
      <trkpt lat="59.44808351" lon="30.23044971">
        <ele>94.96</ele>
        <time>2026-08-30T00:00:01Z</time>
      </trkpt>
      <trkpt lat="59.44804523" lon="30.23028345">
        <ele>93.69</ele>
        <time>2026-08-30T00:00:19Z</time>
      </trkpt>
      <trkpt lat="59.44806994" lon="30.2301089">
        <ele>93.77</ele>
        <time>2026-08-30T00:00:32Z</time>
      </trkpt>
      <trkpt lat="59.44805672" lon="30.22993363">
        <ele>91.69</ele>
        <time>2026-08-30T00:00:48Z</time>
      </trkpt>
      <trkpt lat="59.44799325" lon="30.22979884">
        <ele>92.07</ele>
        <time>2026-08-30T00:01:08Z</time>
      </trkpt>
      <trkpt lat="59.44790539" lon="30.22988637">
        <ele>90.12</ele>
        <time>2026-08-30T00:01:58Z</time>
      </trkpt>
      <trkpt lat="59.44781344" lon="30.22990144">
        <ele>88.68</ele>
        <time>2026-08-30T00:02:08Z</time>
      </trkpt>
      <trkpt lat="59.44771892" lon="30.22986608">
        <ele>89.3</ele>
        <time>2026-08-30T00:02:22Z</time>
      </trkpt>
      <trkpt lat="59.44762354" lon="30.22986847">
        <ele>89.83</ele>
        <time>2026-08-30T00:02:31Z</time>
      </trkpt>
      <trkpt lat="59.44753291" lon="30.22989339">
        <ele>92.68</ele>
        <time>2026-08-30T00:02:42Z</time>
      </trkpt>
      <trkpt lat="59.44743791" lon="30.22992134">
        <ele>92.06</ele>
        <time>2026-08-30T00:02:55Z</time>
      </trkpt>
      <trkpt lat="59.44734855" lon="30.22995935">
        <ele>89.37</ele>
        <time>2026-08-30T00:03:06Z</time>
      </trkpt>
      <trkpt lat="59.44725765" lon="30.22995151">
        <ele>90.07</ele>
        <time>2026-08-30T00:03:17Z</time>
      </trkpt>
      <trkpt lat="59.4471661" lon="30.2299571">
        <ele>89.77</ele>
        <time>2026-08-30T00:03:26Z</time>
      </trkpt>
      <trkpt lat="59.44707027" lon="30.23002986">
        <ele>86.56</ele>
        <time>2026-08-30T00:03:40Z</time>
      </trkpt>
      <trkpt lat="59.44697299" lon="30.23004745">
        <ele>87.24</ele>
        <time>2026-08-30T00:03:50Z</time>
      </trkpt>
      <trkpt lat="59.4468825" lon="30.23001188">
        <ele>92.15</ele>
        <time>2026-08-30T00:04:00Z</time>
      </trkpt>
      <trkpt lat="59.44679157" lon="30.2300641">
        <ele>93.08</ele>
        <time>2026-08-30T00:04:10Z</time>
      </trkpt>
      <trkpt lat="59.44685548" lon="30.22997632">
        <ele>94.45</ele>
        <time>2026-08-30T00:06:11Z</time>
      </trkpt>
      <trkpt lat="59.44676282" lon="30.23001336">
        <ele>92.12</ele>
        <time>2026-08-30T00:06:44Z</time>
      </trkpt>
      <trkpt lat="59.44675141" lon="30.23019519">
        <ele>91.18</ele>
        <time>2026-08-30T00:07:39Z</time>
      </trkpt>
      <trkpt lat="59.44679434" lon="30.23035883">
        <ele>92.08</ele>
        <time>2026-08-30T00:07:51Z</time>
      </trkpt>
      <trkpt lat="59.44676303" lon="30.23053167">
        <ele>91.79</ele>
        <time>2026-08-30T00:08:02Z</time>
      </trkpt>
      <trkpt lat="59.44672177" lon="30.23068983">
        <ele>89.34</ele>
        <time>2026-08-30T00:08:12Z</time>
      </trkpt>
      <trkpt lat="59.44673584" lon="30.23086528">
        <ele>85.39</ele>
        <time>2026-08-30T00:08:25Z</time>
      </trkpt>
      <trkpt lat="59.4467789" lon="30.23103458">
        <ele>85.02</ele>
        <time>2026-08-30T00:08:35Z</time>
      </trkpt>
      <trkpt lat="59.44681184" lon="30.23120532">
        <ele>89.61</ele>
        <time>2026-08-30T00:08:47Z</time>
      </trkpt>
      <trkpt lat="59.44684072" lon="30.23138017">
        <ele>91.67</ele>
        <time>2026-08-30T00:09:00Z</time>
      </trkpt>
      <trkpt lat="59.44686038" lon="30.2315544">
        <ele>92.52</ele>
        <time>2026-08-30T00:09:10Z</time>
      </trkpt>
      <trkpt lat="59.44684794" lon="30.23173566">
        <ele>92.8</ele>
        <time>2026-08-30T00:09:21Z</time>
      </trkpt>
      <trkpt lat="59.44682096" lon="30.23190803">
        <ele>89.63</ele>
        <time>2026-08-30T00:09:35Z</time>
      </trkpt>
      <trkpt lat="59.44679363" lon="30.23208773">
        <ele>91.46</ele>
        <time>2026-08-30T00:09:46Z</time>
      </trkpt>
      <trkpt lat="59.44681744" lon="30.23226616">
        <ele>93.24</ele>
        <time>2026-08-30T00:10:00Z</time>
      </trkpt>
      <trkpt lat="59.44681888" lon="30.23244653">
        <ele>92.67</ele>
        <time>2026-08-30T00:10:11Z</time>
      </trkpt>
      <trkpt lat="59.44681542" lon="30.23263404">
        <ele>90.78</ele>
        <time>2026-08-30T00:10:23Z</time>
      </trkpt>
      <trkpt lat="59.44682951" lon="30.23281381">
        <ele>90.87</ele>
        <time>2026-08-30T00:10:33Z</time>
      </trkpt>
      <trkpt lat="59.44680195" lon="30.23298633">
        <ele>91.79</ele>
        <time>2026-08-30T00:10:42Z</time>
      </trkpt>
      <trkpt lat="59.44676775" lon="30.23315535">
        <ele>91.06</ele>
        <time>2026-08-30T00:10:53Z</time>
      </trkpt>
      <trkpt lat="59.44677748" lon="30.23333555">
        <ele>90.38</ele>
        <time>2026-08-30T00:11:04Z</time>
      </trkpt>
      <trkpt lat="59.44681281" lon="30.23350143">
        <ele>90.27</ele>
        <time>2026-08-30T00:11:18Z</time>
      </trkpt>
      <trkpt lat="59.44685221" lon="30.23366475">
        <ele>94.93</ele>
        <time>2026-08-30T00:11:26Z</time>
      </trkpt>
      <trkpt lat="59.44684028" lon="30.23384851">
        <ele>96.48</ele>
        <time>2026-08-30T00:11:37Z</time>
      </trkpt>
      <trkpt lat="59.44679239" lon="30.23400199">
        <ele>91.96</ele>
        <time>2026-08-30T00:11:48Z</time>
      </trkpt>
      <trkpt lat="59.44678898" lon="30.23417894">
        <ele>90.06</ele>
        <time>2026-08-30T00:12:51Z</time>
      </trkpt>
      <trkpt lat="59.44682702" lon="30.23435461">
        <ele>87.84</ele>
        <time>2026-08-30T00:13:05Z</time>
      </trkpt>
      <trkpt lat="59.4468532" lon="30.23452579">
        <ele>86.94</ele>
        <time>2026-08-30T00:13:17Z</time>
      </trkpt>
      <trkpt lat="59.44686813" lon="30.23470762">
        <ele>85.96</ele>
        <time>2026-08-30T00:13:27Z</time>
      </trkpt>
      <trkpt lat="59.44687551" lon="30.23488665">
        <ele>83.59</ele>
        <time>2026-08-30T00:13:37Z</time>
      </trkpt>
      <trkpt lat="59.44690196" lon="30.23505793">
        <ele>87.08</ele>
        <time>2026-08-30T00:13:48Z</time>
      </trkpt>
      <trkpt lat="59.44691008" lon="30.23523777">
        <ele>88</ele>
        <time>2026-08-30T00:13:59Z</time>
      </trkpt>
      <trkpt lat="59.44690801" lon="30.23541605">
        <ele>88.02</ele>
        <time>2026-08-30T00:14:09Z</time>
      </trkpt>
      <trkpt lat="59.44692177" lon="30.2356128">
        <ele>88.48</ele>
        <time>2026-08-30T00:14:19Z</time>
      </trkpt>
      <trkpt lat="59.44694417" lon="30.23580266">
        <ele>91.32</ele>
        <time>2026-08-30T00:14:32Z</time>
      </trkpt>
      <trkpt lat="59.44694819" lon="30.23598636">
        <ele>92.77</ele>
        <time>2026-08-30T00:14:42Z</time>
      </trkpt>
      <trkpt lat="59.44693825" lon="30.23616841">
        <ele>91.26</ele>
        <time>2026-08-30T00:14:52Z</time>
      </trkpt>
      <trkpt lat="59.44692616" lon="30.23635879">
        <ele>91.85</ele>
        <time>2026-08-30T00:15:02Z</time>
      </trkpt>
      <trkpt lat="59.446914" lon="30.23654569">
        <ele>91.16</ele>
        <time>2026-08-30T00:15:14Z</time>
      </trkpt>
      <trkpt lat="59.44691717" lon="30.23672278">
        <ele>91.14</ele>
        <time>2026-08-30T00:15:25Z</time>
      </trkpt>
      <trkpt lat="59.44693954" lon="30.23689966">
        <ele>92.96</ele>
        <time>2026-08-30T00:15:35Z</time>
      </trkpt>
      <trkpt lat="59.44698654" lon="30.23706096">
        <ele>92.37</ele>
        <time>2026-08-30T00:15:46Z</time>
      </trkpt>
      <trkpt lat="59.44701264" lon="30.23724804">
        <ele>91.4</ele>
        <time>2026-08-30T00:15:57Z</time>
      </trkpt>
      <trkpt lat="59.44700964" lon="30.23743587">
        <ele>89.47</ele>
        <time>2026-08-30T00:16:10Z</time>
      </trkpt>
      <trkpt lat="59.44702451" lon="30.2376241">
        <ele>90.11</ele>
        <time>2026-08-30T00:16:21Z</time>
      </trkpt>
      <trkpt lat="59.44699969" lon="30.23780225">
        <ele>89.35</ele>
        <time>2026-08-30T00:16:32Z</time>
      </trkpt>
      <trkpt lat="59.44700772" lon="30.23799136">
        <ele>88.99</ele>
        <time>2026-08-30T00:16:44Z</time>
      </trkpt>
      <trkpt lat="59.44701804" lon="30.23817515">
        <ele>88.14</ele>
        <time>2026-08-30T00:16:57Z</time>
      </trkpt>
      <trkpt lat="59.44702728" lon="30.23835125">
        <ele>87.95</ele>
        <time>2026-08-30T00:17:08Z</time>
      </trkpt>
      <trkpt lat="59.44698695" lon="30.23851494">
        <ele>84.79</ele>
        <time>2026-08-30T00:17:20Z</time>
      </trkpt>
      <trkpt lat="59.44698033" lon="30.23869637">
        <ele>87.08</ele>
        <time>2026-08-30T00:17:31Z</time>
      </trkpt>
      <trkpt lat="59.44702381" lon="30.23885456">
        <ele>90.33</ele>
        <time>2026-08-30T00:17:44Z</time>
      </trkpt>
      <trkpt lat="59.44703219" lon="30.23903418">
        <ele>90.11</ele>
        <time>2026-08-30T00:18:49Z</time>
      </trkpt>
      <trkpt lat="59.44707243" lon="30.2391942">
        <ele>91.89</ele>
        <time>2026-08-30T00:19:01Z</time>
      </trkpt>
      <trkpt lat="59.44706151" lon="30.23937114">
        <ele>90.33</ele>
        <time>2026-08-30T00:19:13Z</time>
      </trkpt>
      <trkpt lat="59.44705741" lon="30.23955243">
        <ele>94.23</ele>
        <time>2026-08-30T00:19:24Z</time>
      </trkpt>
      <trkpt lat="59.44703652" lon="30.23973711">
        <ele>94.26</ele>
        <time>2026-08-30T00:19:35Z</time>
      </trkpt>
      <trkpt lat="59.44704181" lon="30.23992836">
        <ele>94.29</ele>
        <time>2026-08-30T00:19:47Z</time>
      </trkpt>
      <trkpt lat="59.44707899" lon="30.24008967">
        <ele>94.37</ele>
        <time>2026-08-30T00:19:57Z</time>
      </trkpt>
      <trkpt lat="59.44710256" lon="30.2402752">
        <ele>95.95</ele>
        <time>2026-08-30T00:20:08Z</time>
      </trkpt>
      <trkpt lat="59.44706612" lon="30.24044496">
        <ele>94.98</ele>
        <time>2026-08-30T00:20:18Z</time>
      </trkpt>
      <trkpt lat="59.44704695" lon="30.2406287">
        <ele>93.35</ele>
        <time>2026-08-30T00:20:30Z</time>
      </trkpt>
      <trkpt lat="59.44702682" lon="30.24080414">
        <ele>92.87</ele>
        <time>2026-08-30T00:20:40Z</time>
      </trkpt>
      <trkpt lat="59.44702392" lon="30.24099171">
        <ele>92.29</ele>
        <time>2026-08-30T00:20:52Z</time>
      </trkpt>
      <trkpt lat="59.44707985" lon="30.24113507">
        <ele>90.75</ele>
        <time>2026-08-30T00:21:03Z</time>
      </trkpt>
      <trkpt lat="59.44709403" lon="30.24131967">
        <ele>91.46</ele>
        <time>2026-08-30T00:21:15Z</time>
      </trkpt>
      <trkpt lat="59.44712479" lon="30.24149345">
        <ele>93.51</ele>
        <time>2026-08-30T00:21:27Z</time>
      </trkpt>
      <trkpt lat="59.44711978" lon="30.24168031">
        <ele>93.26</ele>
        <time>2026-08-30T00:21:38Z</time>
      </trkpt>
      <trkpt lat="59.44711566" lon="30.24186892">
        <ele>93.58</ele>
        <time>2026-08-30T00:21:49Z</time>
      </trkpt>
      <trkpt lat="59.44710829" lon="30.24204874">
        <ele>94.36</ele>
        <time>2026-08-30T00:21:59Z</time>
      </trkpt>
      <trkpt lat="59.44709965" lon="30.24224202">
        <ele>94.23</ele>
        <time>2026-08-30T00:22:08Z</time>
      </trkpt>
      <trkpt lat="59.44707037" lon="30.242423">
        <ele>90.84</ele>
        <time>2026-08-30T00:22:20Z</time>
      </trkpt>
      <trkpt lat="59.44709834" lon="30.24259495">
        <ele>92.81</ele>
        <time>2026-08-30T00:22:32Z</time>
      </trkpt>
      <trkpt lat="59.4471016" lon="30.24277854">
        <ele>92.88</ele>
        <time>2026-08-30T00:22:43Z</time>
      </trkpt>
      <trkpt lat="59.44710658" lon="30.24296262">
        <ele>91.72</ele>
        <time>2026-08-30T00:23:47Z</time>
      </trkpt>
      <trkpt lat="59.44708122" lon="30.24314199">
        <ele>89.62</ele>
        <time>2026-08-30T00:23:57Z</time>
      </trkpt>
      <trkpt lat="59.44711829" lon="30.24330893">
        <ele>91.9</ele>
        <time>2026-08-30T00:24:07Z</time>
      </trkpt>
      <trkpt lat="59.44715529" lon="30.24347837">
        <ele>94.47</ele>
        <time>2026-08-30T00:24:19Z</time>
      </trkpt>
      <trkpt lat="59.4471541" lon="30.24366104">
        <ele>92.94</ele>
        <time>2026-08-30T00:24:31Z</time>
      </trkpt>
      <trkpt lat="59.44712002" lon="30.24383502">
        <ele>90.8</ele>
        <time>2026-08-30T00:24:45Z</time>
      </trkpt>
      <trkpt lat="59.44709007" lon="30.24400819">
        <ele>90.36</ele>
        <time>2026-08-30T00:25:00Z</time>
      </trkpt>
      <trkpt lat="59.44710943" lon="30.24418887">
        <ele>91.31</ele>
        <time>2026-08-30T00:25:13Z</time>
      </trkpt>
      <trkpt lat="59.44704665" lon="30.24433866">
        <ele>91.85</ele>
        <time>2026-08-30T00:25:24Z</time>
      </trkpt>
      <trkpt lat="59.44696227" lon="30.24440442">
        <ele>88.13</ele>
        <time>2026-08-30T00:25:49Z</time>
      </trkpt>
      <trkpt lat="59.4468896" lon="30.24451089">
        <ele>85.4</ele>
        <time>2026-08-30T00:26:23Z</time>
      </trkpt>
      <trkpt lat="59.44679632" lon="30.24446723">
        <ele>85.21</ele>
        <time>2026-08-30T00:26:39Z</time>
      </trkpt>
      <trkpt lat="59.44672351" lon="30.24457363">
        <ele>85.81</ele>
        <time>2026-08-30T00:26:51Z</time>
      </trkpt>
      <trkpt lat="59.44663375" lon="30.24461505">
        <ele>87.33</ele>
        <time>2026-08-30T00:27:05Z</time>
      </trkpt>
      <trkpt lat="59.44654661" lon="30.24468007">
        <ele>87.68</ele>
        <time>2026-08-30T00:27:16Z</time>
      </trkpt>
      <trkpt lat="59.44645532" lon="30.24470784">
        <ele>88.38</ele>
        <time>2026-08-30T00:27:26Z</time>
      </trkpt>
      <trkpt lat="59.44639027" lon="30.24483764">
        <ele>90.29</ele>
        <time>2026-08-30T00:27:36Z</time>
      </trkpt>
      <trkpt lat="59.44629923" lon="30.24483538">
        <ele>88.3</ele>
        <time>2026-08-30T00:27:54Z</time>
      </trkpt>
      <trkpt lat="59.44622219" lon="30.24493168">
        <ele>87.89</ele>
        <time>2026-08-30T00:28:06Z</time>
      </trkpt>
      <trkpt lat="59.44614404" lon="30.24502234">
        <ele>86.88</ele>
        <time>2026-08-30T00:28:22Z</time>
      </trkpt>
      <trkpt lat="59.44605952" lon="30.24509553">
        <ele>85.9</ele>
        <time>2026-08-30T00:28:38Z</time>
      </trkpt>
      <trkpt lat="59.4460845" lon="30.24528488">
        <ele>86.16</ele>
        <time>2026-08-30T00:28:48Z</time>
      </trkpt>
      <trkpt lat="59.44609544" lon="30.24547031">
        <ele>86.96</ele>
        <time>2026-08-30T00:29:03Z</time>
      </trkpt>
      <trkpt lat="59.44609317" lon="30.24564951">
        <ele>87.57</ele>
        <time>2026-08-30T00:29:12Z</time>
      </trkpt>
      <trkpt lat="59.44609057" lon="30.24583081">
        <ele>89.86</ele>
        <time>2026-08-30T00:29:20Z</time>
      </trkpt>
      <trkpt lat="59.44611624" lon="30.24601132">
        <ele>88.72</ele>
        <time>2026-08-30T00:29:31Z</time>
      </trkpt>
      <trkpt lat="59.44610159" lon="30.24619322">
        <ele>86.86</ele>
        <time>2026-08-30T00:29:41Z</time>
      </trkpt>
      <trkpt lat="59.44609611" lon="30.2463817">
        <ele>89.13</ele>
        <time>2026-08-30T00:29:50Z</time>
      </trkpt>
      <trkpt lat="59.44610689" lon="30.24656816">
        <ele>87.57</ele>
        <time>2026-08-30T00:30:00Z</time>
      </trkpt>
      <trkpt lat="59.44612922" lon="30.24674326">
        <ele>87.63</ele>
        <time>2026-08-30T00:30:10Z</time>
      </trkpt>
      <trkpt lat="59.44613632" lon="30.24692916">
        <ele>86.1</ele>
        <time>2026-08-30T00:30:20Z</time>
      </trkpt>
      <trkpt lat="59.44614289" lon="30.24712327">
        <ele>84.66</ele>
        <time>2026-08-30T00:30:31Z</time>
      </trkpt>
      <trkpt lat="59.44615369" lon="30.24731043">
        <ele>83.6</ele>
        <time>2026-08-30T00:30:41Z</time>
      </trkpt>
      <trkpt lat="59.44617413" lon="30.24748905">
        <ele>83.48</ele>
        <time>2026-08-30T00:30:50Z</time>
      </trkpt>
      <trkpt lat="59.44618254" lon="30.24767031">
        <ele>85.53</ele>
        <time>2026-08-30T00:30:58Z</time>
      </trkpt>
      <trkpt lat="59.44619951" lon="30.24785203">
        <ele>87.22</ele>
        <time>2026-08-30T00:31:06Z</time>
      </trkpt>
      <trkpt lat="59.44621285" lon="30.24803479">
        <ele>87.35</ele>
        <time>2026-08-30T00:31:15Z</time>
      </trkpt>
      <trkpt lat="59.44621553" lon="30.24822087">
        <ele>83.27</ele>
        <time>2026-08-30T00:31:24Z</time>
      </trkpt>
      <trkpt lat="59.44619952" lon="30.248417">
        <ele>83.52</ele>
        <time>2026-08-30T00:31:33Z</time>
      </trkpt>
      <trkpt lat="59.44619673" lon="30.24859472">
        <ele>84.81</ele>
        <time>2026-08-30T00:31:42Z</time>
      </trkpt>
      <trkpt lat="59.44621248" lon="30.24877752">
        <ele>83.73</ele>
        <time>2026-08-30T00:31:50Z</time>
      </trkpt>
      <trkpt lat="59.4462536" lon="30.24894859">
        <ele>85.73</ele>
        <time>2026-08-30T00:31:58Z</time>
      </trkpt>
      <trkpt lat="59.44634488" lon="30.24893597">
        <ele>78.48</ele>
        <time>2026-08-30T00:32:17Z</time>
      </trkpt>
    </trkseg>
  </trk>
</gpx>